<?xml version="1.0" encoding="utf-8"?>
<gpx xmlns:xsi="http://www.w3.org/2001/XMLSchema-instance" xmlns:xsd="http://www.w3.org/2001/XMLSchema" version="1.1" creator="Shapelink.com" xmlns="http://www.topografix.com/GPX/1/1" xmlns:gpxtpx="http://www.garmin.com/xmlschemas/TrackPointExtension/v1">
  <metadata>
    <name>Löpning 7.00 km, 2011-04-01</name>
    <desc></desc>
    <author><name>Jojje Borssén</name></author> 
    <time>2011-04-01T12:14:59Z</time>
  </metadata>
  <trk>
    <name>Löpning 7.00 km, 2011-04-01</name>
    <trkseg>
      <trkpt lat="59.3272636332" lon="18.0383051106">
        <ele>0</ele>
        <time>2011-04-01T12:14:59Z</time>
      </trkpt>
      <trkpt lat="59.3272696681" lon="18.0382488681">
        <ele>0</ele>
        <time>2011-04-01T12:15:00Z</time>
      </trkpt>
      <trkpt lat="59.3272974122" lon="18.0378827467">
        <ele>0</ele>
        <time>2011-04-01T12:15:07Z</time>
      </trkpt>
      <trkpt lat="59.3273312751" lon="18.0375978459">
        <ele>0</ele>
        <time>2011-04-01T12:15:12Z</time>
      </trkpt>
      <trkpt lat="59.3273754477" lon="18.0372686049">
        <ele>0</ele>
        <time>2011-04-01T12:15:18Z</time>
      </trkpt>
      <trkpt lat="59.3273724302" lon="18.037057381">
        <ele>0</ele>
        <time>2011-04-01T12:15:22Z</time>
      </trkpt>
      <trkpt lat="59.3273944746" lon="18.0365936105">
        <ele>0</ele>
        <time>2011-04-01T12:15:31Z</time>
      </trkpt>
      <trkpt lat="59.3273816503" lon="18.0363685565">
        <ele>0</ele>
        <time>2011-04-01T12:15:35Z</time>
      </trkpt>
      <trkpt lat="59.3274285051" lon="18.0361244755">
        <ele>0</ele>
        <time>2011-04-01T12:15:39Z</time>
      </trkpt>
      <trkpt lat="59.3274354621" lon="18.0360716696">
        <ele>0</ele>
        <time>2011-04-01T12:15:40Z</time>
      </trkpt>
      <trkpt lat="59.327452645" lon="18.0358270857">
        <ele>0</ele>
        <time>2011-04-01T12:15:45Z</time>
      </trkpt>
      <trkpt lat="59.3274610269" lon="18.0357751179">
        <ele>0</ele>
        <time>2011-04-01T12:15:46Z</time>
      </trkpt>
      <trkpt lat="59.3275051995" lon="18.0353824259">
        <ele>0</ele>
        <time>2011-04-01T12:15:53Z</time>
      </trkpt>
      <trkpt lat="59.3275527249" lon="18.0351012132">
        <ele>0</ele>
        <time>2011-04-01T12:15:58Z</time>
      </trkpt>
      <trkpt lat="59.3276016752" lon="18.034917901">
        <ele>0</ele>
        <time>2011-04-01T12:16:01Z</time>
      </trkpt>
      <trkpt lat="59.3276600132" lon="18.03462202">
        <ele>0</ele>
        <time>2011-04-01T12:16:06Z</time>
      </trkpt>
      <trkpt lat="59.3277087959" lon="18.0344361094">
        <ele>0</ele>
        <time>2011-04-01T12:16:09Z</time>
      </trkpt>
      <trkpt lat="59.327781886" lon="18.0341538908">
        <ele>0</ele>
        <time>2011-04-01T12:16:14Z</time>
      </trkpt>
      <trkpt lat="59.3278332671" lon="18.0337709218">
        <ele>0</ele>
        <time>2011-04-01T12:16:21Z</time>
      </trkpt>
      <trkpt lat="59.32798565" lon="18.0334323769">
        <ele>0</ele>
        <time>2011-04-01T12:16:26Z</time>
      </trkpt>
      <trkpt lat="59.3280863167" lon="18.0331244259">
        <ele>0</ele>
        <time>2011-04-01T12:16:31Z</time>
      </trkpt>
      <trkpt lat="59.3281723988" lon="18.0327723861">
        <ele>0</ele>
        <time>2011-04-01T12:16:37Z</time>
      </trkpt>
      <trkpt lat="59.3282026574" lon="18.032587649">
        <ele>0</ele>
        <time>2011-04-01T12:16:40Z</time>
      </trkpt>
      <trkpt lat="59.3281795234" lon="18.0323731562">
        <ele>0</ele>
        <time>2011-04-01T12:16:44Z</time>
      </trkpt>
      <trkpt lat="59.3281692136" lon="18.0323252117">
        <ele>0</ele>
        <time>2011-04-01T12:16:46Z</time>
      </trkpt>
      <trkpt lat="59.3281271365" lon="18.0322618446">
        <ele>0</ele>
        <time>2011-04-01T12:16:52Z</time>
      </trkpt>
      <trkpt lat="59.3279906792" lon="18.0321095454">
        <ele>0</ele>
        <time>2011-04-01T12:16:56Z</time>
      </trkpt>
      <trkpt lat="59.3279347719" lon="18.0319147501">
        <ele>0</ele>
        <time>2011-04-01T12:17:00Z</time>
      </trkpt>
      <trkpt lat="59.3279151583" lon="18.0315635485">
        <ele>0</ele>
        <time>2011-04-01T12:17:05Z</time>
      </trkpt>
      <trkpt lat="59.3279547208" lon="18.0312303679">
        <ele>0</ele>
        <time>2011-04-01T12:17:10Z</time>
      </trkpt>
      <trkpt lat="59.3279897572" lon="18.0308986123">
        <ele>0</ele>
        <time>2011-04-01T12:17:15Z</time>
      </trkpt>
      <trkpt lat="59.3280257155" lon="18.0305432198">
        <ele>0</ele>
        <time>2011-04-01T12:17:20Z</time>
      </trkpt>
      <trkpt lat="59.3280963749" lon="18.0301711472">
        <ele>0</ele>
        <time>2011-04-01T12:17:26Z</time>
      </trkpt>
      <trkpt lat="59.3282035794" lon="18.0298455104">
        <ele>0</ele>
        <time>2011-04-01T12:17:32Z</time>
      </trkpt>
      <trkpt lat="59.3282791004" lon="18.0296374717">
        <ele>0</ele>
        <time>2011-04-01T12:17:36Z</time>
      </trkpt>
      <trkpt lat="59.3283250332" lon="18.0294375634">
        <ele>0</ele>
        <time>2011-04-01T12:17:40Z</time>
      </trkpt>
      <trkpt lat="59.3283639252" lon="18.0291423528">
        <ele>0</ele>
        <time>2011-04-01T12:17:45Z</time>
      </trkpt>
      <trkpt lat="59.3284277114" lon="18.028806993">
        <ele>0</ele>
        <time>2011-04-01T12:17:51Z</time>
      </trkpt>
      <trkpt lat="59.3284367639" lon="18.0287580427">
        <ele>0</ele>
        <time>2011-04-01T12:17:52Z</time>
      </trkpt>
      <trkpt lat="59.3283978719" lon="18.0284327412">
        <ele>0</ele>
        <time>2011-04-01T12:17:57Z</time>
      </trkpt>
      <trkpt lat="59.3283807728" lon="18.028079025">
        <ele>0</ele>
        <time>2011-04-01T12:18:02Z</time>
      </trkpt>
      <trkpt lat="59.3283909987" lon="18.0277272367">
        <ele>0</ele>
        <time>2011-04-01T12:18:07Z</time>
      </trkpt>
      <trkpt lat="59.328414971" lon="18.0273798069">
        <ele>0</ele>
        <time>2011-04-01T12:18:12Z</time>
      </trkpt>
      <trkpt lat="59.3284543659" lon="18.0269860252">
        <ele>0</ele>
        <time>2011-04-01T12:18:18Z</time>
      </trkpt>
      <trkpt lat="59.3284874744" lon="18.0266622324">
        <ele>0</ele>
        <time>2011-04-01T12:18:23Z</time>
      </trkpt>
      <trkpt lat="59.328499209" lon="18.0264216719">
        <ele>0</ele>
        <time>2011-04-01T12:18:27Z</time>
      </trkpt>
      <trkpt lat="59.3284858818" lon="18.0261175766">
        <ele>0</ele>
        <time>2011-04-01T12:18:32Z</time>
      </trkpt>
      <trkpt lat="59.3284961916" lon="18.0258631021">
        <ele>0</ele>
        <time>2011-04-01T12:18:36Z</time>
      </trkpt>
      <trkpt lat="59.3285036515" lon="18.0256146626">
        <ele>0</ele>
        <time>2011-04-01T12:18:40Z</time>
      </trkpt>
      <trkpt lat="59.3284777514" lon="18.0253186977">
        <ele>0</ele>
        <time>2011-04-01T12:18:45Z</time>
      </trkpt>
      <trkpt lat="59.3284598979" lon="18.0251192085">
        <ele>0</ele>
        <time>2011-04-01T12:18:48Z</time>
      </trkpt>
      <trkpt lat="59.3285417053" lon="18.0248032947">
        <ele>0</ele>
        <time>2011-04-01T12:18:54Z</time>
      </trkpt>
      <trkpt lat="59.3286201599" lon="18.0244964333">
        <ele>0</ele>
        <time>2011-04-01T12:19:00Z</time>
      </trkpt>
      <trkpt lat="59.3286396059" lon="18.0244689407">
        <ele>0</ele>
        <time>2011-04-01T12:19:01Z</time>
      </trkpt>
      <trkpt lat="59.3287311362" lon="18.0244937511">
        <ele>0</ele>
        <time>2011-04-01T12:19:05Z</time>
      </trkpt>
      <trkpt lat="59.3287463913" lon="18.0245280331">
        <ele>0</ele>
        <time>2011-04-01T12:19:06Z</time>
      </trkpt>
      <trkpt lat="59.3288231695" lon="18.0246936594">
        <ele>0</ele>
        <time>2011-04-01T12:19:10Z</time>
      </trkpt>
      <trkpt lat="59.3289296196" lon="18.0249839246">
        <ele>0</ele>
        <time>2011-04-01T12:19:17Z</time>
      </trkpt>
      <trkpt lat="59.3289979321" lon="18.0251669853">
        <ele>0</ele>
        <time>2011-04-01T12:19:22Z</time>
      </trkpt>
      <trkpt lat="59.3290134386" lon="18.0251891135">
        <ele>0</ele>
        <time>2011-04-01T12:19:23Z</time>
      </trkpt>
      <trkpt lat="59.3290581141" lon="18.0250795621">
        <ele>0</ele>
        <time>2011-04-01T12:19:27Z</time>
      </trkpt>
      <trkpt lat="59.3290651549" lon="18.0250234872">
        <ele>0</ele>
        <time>2011-04-01T12:19:28Z</time>
      </trkpt>
      <trkpt lat="59.3291443639" lon="18.0245913164">
        <ele>0</ele>
        <time>2011-04-01T12:19:35Z</time>
      </trkpt>
      <trkpt lat="59.3292368162" lon="18.0242432999">
        <ele>0</ele>
        <time>2011-04-01T12:19:41Z</time>
      </trkpt>
      <trkpt lat="59.3293131754" lon="18.0238951158">
        <ele>0</ele>
        <time>2011-04-01T12:19:47Z</time>
      </trkpt>
      <trkpt lat="59.3293715972" lon="18.0235227918">
        <ele>0</ele>
        <time>2011-04-01T12:19:53Z</time>
      </trkpt>
      <trkpt lat="59.3294334556" lon="18.0230985">
        <ele>0</ele>
        <time>2011-04-01T12:20:00Z</time>
      </trkpt>
      <trkpt lat="59.3294992535" lon="18.0227588654">
        <ele>0</ele>
        <time>2011-04-01T12:20:06Z</time>
      </trkpt>
      <trkpt lat="59.3295816476" lon="18.0224192308">
        <ele>0</ele>
        <time>2011-04-01T12:20:12Z</time>
      </trkpt>
      <trkpt lat="59.3296782071" lon="18.02207507">
        <ele>0</ele>
        <time>2011-04-01T12:20:18Z</time>
      </trkpt>
      <trkpt lat="59.329783819" lon="18.0217831285">
        <ele>0</ele>
        <time>2011-04-01T12:20:24Z</time>
      </trkpt>
      <trkpt lat="59.3298818873" lon="18.0214616826">
        <ele>0</ele>
        <time>2011-04-01T12:20:30Z</time>
      </trkpt>
      <trkpt lat="59.3299465955" lon="18.0211394824">
        <ele>0</ele>
        <time>2011-04-01T12:20:36Z</time>
      </trkpt>
      <trkpt lat="59.3300019161" lon="18.0210078865">
        <ele>0</ele>
        <time>2011-04-01T12:20:39Z</time>
      </trkpt>
      <trkpt lat="59.3301387087" lon="18.0209254086">
        <ele>0</ele>
        <time>2011-04-01T12:20:43Z</time>
      </trkpt>
      <trkpt lat="59.3301681292" lon="18.020723321">
        <ele>0</ele>
        <time>2011-04-01T12:20:47Z</time>
      </trkpt>
      <trkpt lat="59.3301583223" lon="18.0206307848">
        <ele>0</ele>
        <time>2011-04-01T12:20:48Z</time>
      </trkpt>
      <trkpt lat="59.3301864855" lon="18.0203904758">
        <ele>0</ele>
        <time>2011-04-01T12:20:52Z</time>
      </trkpt>
      <trkpt lat="59.3302824583" lon="18.0200625758">
        <ele>0</ele>
        <time>2011-04-01T12:20:58Z</time>
      </trkpt>
      <trkpt lat="59.3303686242" lon="18.0197222707">
        <ele>0</ele>
        <time>2011-04-01T12:21:04Z</time>
      </trkpt>
      <trkpt lat="59.3304552092" lon="18.0193749248">
        <ele>0</ele>
        <time>2011-04-01T12:21:10Z</time>
      </trkpt>
      <trkpt lat="59.3305464881" lon="18.0190134972">
        <ele>0</ele>
        <time>2011-04-01T12:21:16Z</time>
      </trkpt>
      <trkpt lat="59.3306452269" lon="18.0187239026">
        <ele>0</ele>
        <time>2011-04-01T12:21:22Z</time>
      </trkpt>
      <trkpt lat="59.3307005474" lon="18.0184550951">
        <ele>0</ele>
        <time>2011-04-01T12:21:27Z</time>
      </trkpt>
      <trkpt lat="59.3307836959" lon="18.0181848626">
        <ele>0</ele>
        <time>2011-04-01T12:21:32Z</time>
      </trkpt>
      <trkpt lat="59.3308620667" lon="18.0178827789">
        <ele>0</ele>
        <time>2011-04-01T12:21:37Z</time>
      </trkpt>
      <trkpt lat="59.330931385" lon="18.0176151449">
        <ele>0.6</ele>
        <time>2011-04-01T12:21:42Z</time>
      </trkpt>
      <trkpt lat="59.3310049781" lon="18.0173421464">
        <ele>1</ele>
        <time>2011-04-01T12:21:47Z</time>
      </trkpt>
      <trkpt lat="59.3310821754" lon="18.0170103908">
        <ele>1.6</ele>
        <time>2011-04-01T12:21:53Z</time>
      </trkpt>
      <trkpt lat="59.331125845" lon="18.0166960695">
        <ele>2.6</ele>
        <time>2011-04-01T12:21:58Z</time>
      </trkpt>
      <trkpt lat="59.3311140266" lon="18.0163726958">
        <ele>3</ele>
        <time>2011-04-01T12:22:03Z</time>
      </trkpt>
      <trkpt lat="59.3311059799" lon="18.0163236617">
        <ele>3.2</ele>
        <time>2011-04-01T12:22:04Z</time>
      </trkpt>
      <trkpt lat="59.3318936271" lon="18.016134566">
        <ele>3.2</ele>
        <time>2011-04-01T12:22:37Z</time>
      </trkpt>
      <trkpt lat="59.3319247239" lon="18.0160878789">
        <ele>3</ele>
        <time>2011-04-01T12:22:38Z</time>
      </trkpt>
      <trkpt lat="59.3319920306" lon="18.0159912356">
        <ele>3</ele>
        <time>2011-04-01T12:22:42Z</time>
      </trkpt>
      <trkpt lat="59.332069647" lon="18.0159867093">
        <ele>2.8</ele>
        <time>2011-04-01T12:22:46Z</time>
      </trkpt>
      <trkpt lat="59.3322482653" lon="18.015911356">
        <ele>2.8</ele>
        <time>2011-04-01T12:22:51Z</time>
      </trkpt>
      <trkpt lat="59.3323133088" lon="18.0157541116">
        <ele>2.8</ele>
        <time>2011-04-01T12:22:54Z</time>
      </trkpt>
      <trkpt lat="59.3324558011" lon="18.0155545386">
        <ele>2.8</ele>
        <time>2011-04-01T12:22:59Z</time>
      </trkpt>
      <trkpt lat="59.3326137161" lon="18.0153314124">
        <ele>2.8</ele>
        <time>2011-04-01T12:23:05Z</time>
      </trkpt>
      <trkpt lat="59.3327146342" lon="18.0151710666">
        <ele>2.8</ele>
        <time>2011-04-01T12:23:09Z</time>
      </trkpt>
      <trkpt lat="59.3328172287" lon="18.0149072044">
        <ele>2.8</ele>
        <time>2011-04-01T12:23:14Z</time>
      </trkpt>
      <trkpt lat="59.3328394407" lon="18.0148630318">
        <ele>2.8</ele>
        <time>2011-04-01T12:23:15Z</time>
      </trkpt>
      <trkpt lat="59.33287959" lon="18.0147757762">
        <ele>2.8</ele>
        <time>2011-04-01T12:23:17Z</time>
      </trkpt>
      <trkpt lat="59.3330076654" lon="18.0147803863">
        <ele>2.8</ele>
        <time>2011-04-01T12:23:23Z</time>
      </trkpt>
      <trkpt lat="59.3330109344" lon="18.0147788775">
        <ele>2.8</ele>
        <time>2011-04-01T12:23:26Z</time>
      </trkpt>
      <trkpt lat="59.3329757304" lon="18.0147083858">
        <ele>2.8</ele>
        <time>2011-04-01T12:23:28Z</time>
      </trkpt>
      <trkpt lat="59.3328548634" lon="18.0144135943">
        <ele>2.8</ele>
        <time>2011-04-01T12:23:34Z</time>
      </trkpt>
      <trkpt lat="59.3327290511" lon="18.0141859419">
        <ele>2.8</ele>
        <time>2011-04-01T12:23:39Z</time>
      </trkpt>
      <trkpt lat="59.3325772549" lon="18.0139365804">
        <ele>3.8</ele>
        <time>2011-04-01T12:23:45Z</time>
      </trkpt>
      <trkpt lat="59.3324617523" lon="18.0137023063">
        <ele>5.2</ele>
        <time>2011-04-01T12:23:50Z</time>
      </trkpt>
      <trkpt lat="59.3326039931" lon="18.0133969537">
        <ele>6.8</ele>
        <time>2011-04-01T12:23:56Z</time>
      </trkpt>
      <trkpt lat="59.3326324916" lon="18.0133555471">
        <ele>7</ele>
        <time>2011-04-01T12:23:57Z</time>
      </trkpt>
      <trkpt lat="59.3327821085" lon="18.0130982228">
        <ele>8.4</ele>
        <time>2011-04-01T12:24:03Z</time>
      </trkpt>
      <trkpt lat="59.3329275345" lon="18.0128748451">
        <ele>9.8</ele>
        <time>2011-04-01T12:24:09Z</time>
      </trkpt>
      <trkpt lat="59.333043037" lon="18.012655407">
        <ele>10.6</ele>
        <time>2011-04-01T12:24:14Z</time>
      </trkpt>
      <trkpt lat="59.3331566956" lon="18.0124420876">
        <ele>11.8</ele>
        <time>2011-04-01T12:24:19Z</time>
      </trkpt>
      <trkpt lat="59.333257446" lon="18.0123525689">
        <ele>12.4</ele>
        <time>2011-04-01T12:24:23Z</time>
      </trkpt>
      <trkpt lat="59.3333870302" lon="18.0123177841">
        <ele>12.8</ele>
        <time>2011-04-01T12:24:28Z</time>
      </trkpt>
      <trkpt lat="59.3335685822" lon="18.0122600328">
        <ele>13.2</ele>
        <time>2011-04-01T12:24:34Z</time>
      </trkpt>
      <trkpt lat="59.3336860964" lon="18.0122254993">
        <ele>13.2</ele>
        <time>2011-04-01T12:24:38Z</time>
      </trkpt>
      <trkpt lat="59.3338271638" lon="18.0121363159">
        <ele>13.4</ele>
        <time>2011-04-01T12:24:43Z</time>
      </trkpt>
      <trkpt lat="59.3341210332" lon="18.0119775627">
        <ele>13.4</ele>
        <time>2011-04-01T12:24:53Z</time>
      </trkpt>
      <trkpt lat="59.334276266" lon="18.0119120163">
        <ele>13.4</ele>
        <time>2011-04-01T12:24:58Z</time>
      </trkpt>
      <trkpt lat="59.3344243742" lon="18.0118007046">
        <ele>13.4</ele>
        <time>2011-04-01T12:25:03Z</time>
      </trkpt>
      <trkpt lat="59.3344803652" lon="18.0117256866">
        <ele>13.4</ele>
        <time>2011-04-01T12:25:05Z</time>
      </trkpt>
      <trkpt lat="59.3345213527" lon="18.0114181547">
        <ele>13.4</ele>
        <time>2011-04-01T12:25:10Z</time>
      </trkpt>
      <trkpt lat="59.334533758" lon="18.0110756703">
        <ele>13.4</ele>
        <time>2011-04-01T12:25:15Z</time>
      </trkpt>
      <trkpt lat="59.3345316625" lon="18.0110144824">
        <ele>13.6</ele>
        <time>2011-04-01T12:25:16Z</time>
      </trkpt>
      <trkpt lat="59.3345279744" lon="18.0107146619">
        <ele>13.6</ele>
        <time>2011-04-01T12:25:21Z</time>
      </trkpt>
      <trkpt lat="59.3345390385" lon="18.0105297571">
        <ele>13.6</ele>
        <time>2011-04-01T12:25:27Z</time>
      </trkpt>
      <trkpt lat="59.3345433971" lon="18.0102667331">
        <ele>13.6</ele>
        <time>2011-04-01T12:25:32Z</time>
      </trkpt>
      <trkpt lat="59.334552701" lon="18.0099925612">
        <ele>13.6</ele>
        <time>2011-04-01T12:25:37Z</time>
      </trkpt>
      <trkpt lat="59.3345686267" lon="18.0098190558">
        <ele>13.6</ele>
        <time>2011-04-01T12:25:41Z</time>
      </trkpt>
      <trkpt lat="59.3345673694" lon="18.009748145">
        <ele>13.2</ele>
        <time>2011-04-01T12:25:42Z</time>
      </trkpt>
      <trkpt lat="59.3345369431" lon="18.0094655911">
        <ele>12.6</ele>
        <time>2011-04-01T12:25:47Z</time>
      </trkpt>
      <trkpt lat="59.3344273078" lon="18.0091001403">
        <ele>12</ele>
        <time>2011-04-01T12:25:53Z</time>
      </trkpt>
      <trkpt lat="59.3343630186" lon="18.008764529">
        <ele>11.8</ele>
        <time>2011-04-01T12:25:58Z</time>
      </trkpt>
      <trkpt lat="59.3343879129" lon="18.0084474417">
        <ele>11.6</ele>
        <time>2011-04-01T12:26:03Z</time>
      </trkpt>
      <trkpt lat="59.3344632662" lon="18.0082254052">
        <ele>11.6</ele>
        <time>2011-04-01T12:26:07Z</time>
      </trkpt>
      <trkpt lat="59.3344805329" lon="18.0081746109">
        <ele>11.6</ele>
        <time>2011-04-01T12:26:08Z</time>
      </trkpt>
      <trkpt lat="59.3345248731" lon="18.007855009">
        <ele>11.6</ele>
        <time>2011-04-01T12:26:14Z</time>
      </trkpt>
      <trkpt lat="59.3345185867" lon="18.0076697691">
        <ele>11.4</ele>
        <time>2011-04-01T12:26:17Z</time>
      </trkpt>
      <trkpt lat="59.3344977996" lon="18.0076162925">
        <ele>11.4</ele>
        <time>2011-04-01T12:26:18Z</time>
      </trkpt>
      <trkpt lat="59.3343819617" lon="18.0073000434">
        <ele>11.4</ele>
        <time>2011-04-01T12:26:24Z</time>
      </trkpt>
      <trkpt lat="59.3343377053" lon="18.0070805215">
        <ele>11.4</ele>
        <time>2011-04-01T12:26:28Z</time>
      </trkpt>
      <trkpt lat="59.3343750886" lon="18.0068117139">
        <ele>11.4</ele>
        <time>2011-04-01T12:26:33Z</time>
      </trkpt>
      <trkpt lat="59.3343775193" lon="18.0067396296">
        <ele>11.4</ele>
        <time>2011-04-01T12:26:34Z</time>
      </trkpt>
      <trkpt lat="59.3343518707" lon="18.0064227938">
        <ele>11.4</ele>
        <time>2011-04-01T12:26:39Z</time>
      </trkpt>
      <trkpt lat="59.3343219473" lon="18.0060982466">
        <ele>11.4</ele>
        <time>2011-04-01T12:26:45Z</time>
      </trkpt>
      <trkpt lat="59.3342791158" lon="18.0057886192">
        <ele>11.4</ele>
        <time>2011-04-01T12:26:51Z</time>
      </trkpt>
      <trkpt lat="59.3343682992" lon="18.0056172932">
        <ele>11.4</ele>
        <time>2011-04-01T12:26:56Z</time>
      </trkpt>
      <trkpt lat="59.3345318301" lon="18.0054916485">
        <ele>11.4</ele>
        <time>2011-04-01T12:27:02Z</time>
      </trkpt>
      <trkpt lat="59.3346780105" lon="18.0054568636">
        <ele>11.4</ele>
        <time>2011-04-01T12:27:07Z</time>
      </trkpt>
      <trkpt lat="59.3347689541" lon="18.0054738789">
        <ele>11.4</ele>
        <time>2011-04-01T12:27:11Z</time>
      </trkpt>
      <trkpt lat="59.3348130429" lon="18.0056446182">
        <ele>11.4</ele>
        <time>2011-04-01T12:27:16Z</time>
      </trkpt>
      <trkpt lat="59.3348511805" lon="18.0057029562">
        <ele>11.4</ele>
        <time>2011-04-01T12:27:20Z</time>
      </trkpt>
      <trkpt lat="59.3348937606" lon="18.0057839254">
        <ele>11.4</ele>
        <time>2011-04-01T12:27:25Z</time>
      </trkpt>
      <trkpt lat="59.3348959398" lon="18.0057890383">
        <ele>11.4</ele>
        <time>2011-04-01T12:27:26Z</time>
      </trkpt>
      <trkpt lat="59.3349005499" lon="18.0057985937">
        <ele>11.4</ele>
        <time>2011-04-01T12:27:31Z</time>
      </trkpt>
      <trkpt lat="59.3349181519" lon="18.0056518266">
        <ele>11.4</ele>
        <time>2011-04-01T12:27:58Z</time>
      </trkpt>
      <trkpt lat="59.3349299704" lon="18.0056348952">
        <ele>11.4</ele>
        <time>2011-04-01T12:27:59Z</time>
      </trkpt>
      <trkpt lat="59.3349692815" lon="18.0055877051">
        <ele>11.4</ele>
        <time>2011-04-01T12:28:02Z</time>
      </trkpt>
      <trkpt lat="59.3350494963" lon="18.0054220787">
        <ele>11.4</ele>
        <time>2011-04-01T12:28:07Z</time>
      </trkpt>
      <trkpt lat="59.3350548607" lon="18.0053663391">
        <ele>11.4</ele>
        <time>2011-04-01T12:28:08Z</time>
      </trkpt>
      <trkpt lat="59.3351010449" lon="18.0051831946">
        <ele>11.4</ele>
        <time>2011-04-01T12:28:12Z</time>
      </trkpt>
      <trkpt lat="59.3351194851" lon="18.0051374294">
        <ele>11.4</ele>
        <time>2011-04-01T12:28:13Z</time>
      </trkpt>
      <trkpt lat="59.3352492369" lon="18.0048674484">
        <ele>11.4</ele>
        <time>2011-04-01T12:28:19Z</time>
      </trkpt>
      <trkpt lat="59.3353716127" lon="18.0046794424">
        <ele>11.4</ele>
        <time>2011-04-01T12:28:24Z</time>
      </trkpt>
      <trkpt lat="59.3355222354" lon="18.004458747">
        <ele>11.4</ele>
        <time>2011-04-01T12:28:30Z</time>
      </trkpt>
      <trkpt lat="59.3356839223" lon="18.0042863313">
        <ele>11.4</ele>
        <time>2011-04-01T12:28:36Z</time>
      </trkpt>
      <trkpt lat="59.3357291845" lon="18.0040608582">
        <ele>11.4</ele>
        <time>2011-04-01T12:28:40Z</time>
      </trkpt>
      <trkpt lat="59.3357482114" lon="18.0039431763">
        <ele>11.4</ele>
        <time>2011-04-01T12:28:42Z</time>
      </trkpt>
      <trkpt lat="59.3358046216" lon="18.0038192918">
        <ele>11.4</ele>
        <time>2011-04-01T12:28:45Z</time>
      </trkpt>
      <trkpt lat="59.3359100659" lon="18.0038628777">
        <ele>12.2</ele>
        <time>2011-04-01T12:28:49Z</time>
      </trkpt>
      <trkpt lat="59.3360427514" lon="18.0039582637">
        <ele>12.6</ele>
        <time>2011-04-01T12:28:53Z</time>
      </trkpt>
      <trkpt lat="59.3362223755" lon="18.0039800567">
        <ele>13</ele>
        <time>2011-04-01T12:28:58Z</time>
      </trkpt>
      <trkpt lat="59.3363322622" lon="18.0041274105">
        <ele>13.2</ele>
        <time>2011-04-01T12:29:02Z</time>
      </trkpt>
      <trkpt lat="59.3364782749" lon="18.004415664">
        <ele>13.8</ele>
        <time>2011-04-01T12:29:08Z</time>
      </trkpt>
      <trkpt lat="59.3365549693" lon="18.004710204">
        <ele>14.6</ele>
        <time>2011-04-01T12:29:13Z</time>
      </trkpt>
      <trkpt lat="59.3365783548" lon="18.0048208451">
        <ele>14.8</ele>
        <time>2011-04-01T12:29:15Z</time>
      </trkpt>
      <trkpt lat="59.3365851442" lon="18.0049937637">
        <ele>15</ele>
        <time>2011-04-01T12:29:19Z</time>
      </trkpt>
      <trkpt lat="59.3365812047" lon="18.0050334939">
        <ele>15.2</ele>
        <time>2011-04-01T12:29:20Z</time>
      </trkpt>
      <trkpt lat="59.3365833001" lon="18.0050717153">
        <ele>15.4</ele>
        <time>2011-04-01T12:29:21Z</time>
      </trkpt>
      <trkpt lat="59.3366064342" lon="18.0054182231">
        <ele>16.2</ele>
        <time>2011-04-01T12:29:26Z</time>
      </trkpt>
      <trkpt lat="59.3367209309" lon="18.0056414331">
        <ele>16.8</ele>
        <time>2011-04-01T12:29:30Z</time>
      </trkpt>
      <trkpt lat="59.3368760799" lon="18.0058735279">
        <ele>17.4</ele>
        <time>2011-04-01T12:29:35Z</time>
      </trkpt>
      <trkpt lat="59.3370324862" lon="18.0061443471">
        <ele>19</ele>
        <time>2011-04-01T12:29:41Z</time>
      </trkpt>
      <trkpt lat="59.3371565383" lon="18.0063657969">
        <ele>20.4</ele>
        <time>2011-04-01T12:29:46Z</time>
      </trkpt>
      <trkpt lat="59.3372985277" lon="18.006640807">
        <ele>22</ele>
        <time>2011-04-01T12:29:52Z</time>
      </trkpt>
      <trkpt lat="59.3374375834" lon="18.0069012326">
        <ele>23.6</ele>
        <time>2011-04-01T12:29:58Z</time>
      </trkpt>
      <trkpt lat="59.3375814168" lon="18.0071516838">
        <ele>24.8</ele>
        <time>2011-04-01T12:30:04Z</time>
      </trkpt>
      <trkpt lat="59.3376794012" lon="18.0073205791">
        <ele>25.4</ele>
        <time>2011-04-01T12:30:08Z</time>
      </trkpt>
      <trkpt lat="59.3378025313" lon="18.0076251773">
        <ele>26.8</ele>
        <time>2011-04-01T12:30:14Z</time>
      </trkpt>
      <trkpt lat="59.337800352" lon="18.0076888798">
        <ele>27</ele>
        <time>2011-04-01T12:30:15Z</time>
      </trkpt>
      <trkpt lat="59.3377208078" lon="18.0079494731">
        <ele>27.8</ele>
        <time>2011-04-01T12:30:19Z</time>
      </trkpt>
      <trkpt lat="59.3375936544" lon="18.0082159337">
        <ele>29</ele>
        <time>2011-04-01T12:30:24Z</time>
      </trkpt>
      <trkpt lat="59.3374660818" lon="18.00847879">
        <ele>30.4</ele>
        <time>2011-04-01T12:30:29Z</time>
      </trkpt>
      <trkpt lat="59.3373703605" lon="18.0087500283">
        <ele>31.4</ele>
        <time>2011-04-01T12:30:34Z</time>
      </trkpt>
      <trkpt lat="59.3372772376" lon="18.009018752">
        <ele>32.6</ele>
        <time>2011-04-01T12:30:39Z</time>
      </trkpt>
      <trkpt lat="59.3371623218" lon="18.0093258649">
        <ele>33.6</ele>
        <time>2011-04-01T12:30:45Z</time>
      </trkpt>
      <trkpt lat="59.3370780837" lon="18.0095202411">
        <ele>34</ele>
        <time>2011-04-01T12:30:49Z</time>
      </trkpt>
      <trkpt lat="59.3369644251" lon="18.0097574489">
        <ele>35</ele>
        <time>2011-04-01T12:30:54Z</time>
      </trkpt>
      <trkpt lat="59.3368468271" lon="18.0099852689">
        <ele>35.6</ele>
        <time>2011-04-01T12:30:59Z</time>
      </trkpt>
      <trkpt lat="59.3366827095" lon="18.0102454431">
        <ele>36.2</ele>
        <time>2011-04-01T12:31:05Z</time>
      </trkpt>
      <trkpt lat="59.3365489343" lon="18.0104874286">
        <ele>36.6</ele>
        <time>2011-04-01T12:31:11Z</time>
      </trkpt>
      <trkpt lat="59.3364356949" lon="18.0107756821">
        <ele>36.6</ele>
        <time>2011-04-01T12:31:17Z</time>
      </trkpt>
      <trkpt lat="59.3363803743" lon="18.0109268916">
        <ele>36.8</ele>
        <time>2011-04-01T12:31:20Z</time>
      </trkpt>
      <trkpt lat="59.336246683" lon="18.0111840483">
        <ele>36.8</ele>
        <time>2011-04-01T12:31:26Z</time>
      </trkpt>
      <trkpt lat="59.3362209506" lon="18.0112242814">
        <ele>36.8</ele>
        <time>2011-04-01T12:31:27Z</time>
      </trkpt>
      <trkpt lat="59.3360579226" lon="18.0114396124">
        <ele>36.8</ele>
        <time>2011-04-01T12:31:33Z</time>
      </trkpt>
      <trkpt lat="59.3359047015" lon="18.0116950927">
        <ele>36.8</ele>
        <time>2011-04-01T12:31:39Z</time>
      </trkpt>
      <trkpt lat="59.3357667354" lon="18.0119631459">
        <ele>36</ele>
        <time>2011-04-01T12:31:45Z</time>
      </trkpt>
      <trkpt lat="59.3356133467" lon="18.0122218951">
        <ele>35.4</ele>
        <time>2011-04-01T12:31:51Z</time>
      </trkpt>
      <trkpt lat="59.3354814994" lon="18.0124846677">
        <ele>35.2</ele>
        <time>2011-04-01T12:31:57Z</time>
      </trkpt>
      <trkpt lat="59.3353434495" lon="18.0127302574">
        <ele>35</ele>
        <time>2011-04-01T12:32:03Z</time>
      </trkpt>
      <trkpt lat="59.3352152902" lon="18.0129607596">
        <ele>34.8</ele>
        <time>2011-04-01T12:32:08Z</time>
      </trkpt>
      <trkpt lat="59.3350763183" lon="18.0132485941">
        <ele>34.8</ele>
        <time>2011-04-01T12:32:14Z</time>
      </trkpt>
      <trkpt lat="59.3349726342" lon="18.0134788448">
        <ele>34.8</ele>
        <time>2011-04-01T12:32:19Z</time>
      </trkpt>
      <trkpt lat="59.3348524378" lon="18.0136848719">
        <ele>34.8</ele>
        <time>2011-04-01T12:32:23Z</time>
      </trkpt>
      <trkpt lat="59.3346796868" lon="18.0139025499">
        <ele>34.8</ele>
        <time>2011-04-01T12:32:28Z</time>
      </trkpt>
      <trkpt lat="59.3346543735" lon="18.0139628158">
        <ele>34.8</ele>
        <time>2011-04-01T12:32:29Z</time>
      </trkpt>
      <trkpt lat="59.3345273039" lon="18.0142819147">
        <ele>34.8</ele>
        <time>2011-04-01T12:32:34Z</time>
      </trkpt>
      <trkpt lat="59.3344568959" lon="18.0145098185">
        <ele>34.4</ele>
        <time>2011-04-01T12:32:37Z</time>
      </trkpt>
      <trkpt lat="59.3344043414" lon="18.0146423364">
        <ele>34</ele>
        <time>2011-04-01T12:32:39Z</time>
      </trkpt>
      <trkpt lat="59.3341849871" lon="18.0148736768">
        <ele>33.6</ele>
        <time>2011-04-01T12:32:44Z</time>
      </trkpt>
      <trkpt lat="59.3341373779" lon="18.0149118983">
        <ele>33.4</ele>
        <time>2011-04-01T12:32:45Z</time>
      </trkpt>
      <trkpt lat="59.3340045248" lon="18.0152066059">
        <ele>33.2</ele>
        <time>2011-04-01T12:32:49Z</time>
      </trkpt>
      <trkpt lat="59.3339248129" lon="18.0154619186">
        <ele>33</ele>
        <time>2011-04-01T12:32:53Z</time>
      </trkpt>
      <trkpt lat="59.3338875973" lon="18.0155521078">
        <ele>33</ele>
        <time>2011-04-01T12:32:54Z</time>
      </trkpt>
      <trkpt lat="59.3338554108" lon="18.0157056642">
        <ele>33</ele>
        <time>2011-04-01T12:32:56Z</time>
      </trkpt>
      <trkpt lat="59.333766395" lon="18.0160477296">
        <ele>32.6</ele>
        <time>2011-04-01T12:33:01Z</time>
      </trkpt>
      <trkpt lat="59.333620047" lon="18.0162333886">
        <ele>32</ele>
        <time>2011-04-01T12:33:05Z</time>
      </trkpt>
      <trkpt lat="59.3334403391" lon="18.0165914634">
        <ele>31.4</ele>
        <time>2011-04-01T12:33:11Z</time>
      </trkpt>
      <trkpt lat="59.3333497308" lon="18.0170532223">
        <ele>31</ele>
        <time>2011-04-01T12:33:18Z</time>
      </trkpt>
      <trkpt lat="59.3333814982" lon="18.0171781964">
        <ele>31</ele>
        <time>2011-04-01T12:33:19Z</time>
      </trkpt>
      <trkpt lat="59.3333700988" lon="18.0173101275">
        <ele>31</ele>
        <time>2011-04-01T12:33:21Z</time>
      </trkpt>
      <trkpt lat="59.333277395" lon="18.0173536296">
        <ele>31</ele>
        <time>2011-04-01T12:33:23Z</time>
      </trkpt>
      <trkpt lat="59.3330848627" lon="18.017524788">
        <ele>30.8</ele>
        <time>2011-04-01T12:33:29Z</time>
      </trkpt>
      <trkpt lat="59.3329327312" lon="18.0176904981">
        <ele>30.8</ele>
        <time>2011-04-01T12:33:34Z</time>
      </trkpt>
      <trkpt lat="59.3328489122" lon="18.0178266202">
        <ele>30.8</ele>
        <time>2011-04-01T12:33:37Z</time>
      </trkpt>
      <trkpt lat="59.3327504249" lon="18.0180838607">
        <ele>30.8</ele>
        <time>2011-04-01T12:33:42Z</time>
      </trkpt>
      <trkpt lat="59.3327126225" lon="18.0182232517">
        <ele>30.8</ele>
        <time>2011-04-01T12:33:45Z</time>
      </trkpt>
      <trkpt lat="59.3326317372" lon="18.018496334">
        <ele>30.8</ele>
        <time>2011-04-01T12:33:50Z</time>
      </trkpt>
      <trkpt lat="59.332553115" lon="18.0187016906">
        <ele>30.8</ele>
        <time>2011-04-01T12:33:54Z</time>
      </trkpt>
      <trkpt lat="59.332485976" lon="18.0189352941">
        <ele>30.8</ele>
        <time>2011-04-01T12:33:58Z</time>
      </trkpt>
      <trkpt lat="59.3324601597" lon="18.0189681512">
        <ele>30.8</ele>
        <time>2011-04-01T12:33:59Z</time>
      </trkpt>
      <trkpt lat="59.3323916796" lon="18.0190428339">
        <ele>30.8</ele>
        <time>2011-04-01T12:34:02Z</time>
      </trkpt>
      <trkpt lat="59.332349351" lon="18.0190574184">
        <ele>30.8</ele>
        <time>2011-04-01T12:34:03Z</time>
      </trkpt>
      <trkpt lat="59.3321324274" lon="18.0191507089">
        <ele>30.8</ele>
        <time>2011-04-01T12:34:08Z</time>
      </trkpt>
      <trkpt lat="59.3320835609" lon="18.0191160079">
        <ele>30.8</ele>
        <time>2011-04-01T12:34:09Z</time>
      </trkpt>
      <trkpt lat="59.3319639512" lon="18.0190481983">
        <ele>30.8</ele>
        <time>2011-04-01T12:34:12Z</time>
      </trkpt>
      <trkpt lat="59.3318225486" lon="18.0189968173">
        <ele>30.8</ele>
        <time>2011-04-01T12:34:16Z</time>
      </trkpt>
      <trkpt lat="59.3317264082" lon="18.0189894412">
        <ele>30.8</ele>
        <time>2011-04-01T12:34:18Z</time>
      </trkpt>
      <trkpt lat="59.3316022722" lon="18.0190083843">
        <ele>30.8</ele>
        <time>2011-04-01T12:34:21Z</time>
      </trkpt>
      <trkpt lat="59.331397251" lon="18.0191212885">
        <ele>30.8</ele>
        <time>2011-04-01T12:34:26Z</time>
      </trkpt>
      <trkpt lat="59.3313544195" lon="18.0191690653">
        <ele>30.8</ele>
        <time>2011-04-01T12:34:27Z</time>
      </trkpt>
      <trkpt lat="59.3312683373" lon="18.0194341848">
        <ele>30.4</ele>
        <time>2011-04-01T12:34:31Z</time>
      </trkpt>
      <trkpt lat="59.3312710196" lon="18.0195178362">
        <ele>30.2</ele>
        <time>2011-04-01T12:34:32Z</time>
      </trkpt>
      <trkpt lat="59.3312917229" lon="18.019851352">
        <ele>29.6</ele>
        <time>2011-04-01T12:34:36Z</time>
      </trkpt>
      <trkpt lat="59.3313928086" lon="18.020240775">
        <ele>29</ele>
        <time>2011-04-01T12:34:41Z</time>
      </trkpt>
      <trkpt lat="59.3313641425" lon="18.0204705229">
        <ele>28.4</ele>
        <time>2011-04-01T12:34:44Z</time>
      </trkpt>
      <trkpt lat="59.3313447803" lon="18.0205447865">
        <ele>28.2</ele>
        <time>2011-04-01T12:34:45Z</time>
      </trkpt>
      <trkpt lat="59.3313118394" lon="18.0207012766">
        <ele>28</ele>
        <time>2011-04-01T12:34:47Z</time>
      </trkpt>
      <trkpt lat="59.3312814131" lon="18.0208535757">
        <ele>27.6</ele>
        <time>2011-04-01T12:34:49Z</time>
      </trkpt>
      <trkpt lat="59.3312062275" lon="18.0211574196">
        <ele>26.8</ele>
        <time>2011-04-01T12:34:53Z</time>
      </trkpt>
      <trkpt lat="59.331065663" lon="18.0215803703">
        <ele>25.8</ele>
        <time>2011-04-01T12:34:59Z</time>
      </trkpt>
      <trkpt lat="59.3310419422" lon="18.0216491019">
        <ele>25.6</ele>
        <time>2011-04-01T12:35:00Z</time>
      </trkpt>
      <trkpt lat="59.3309458857" lon="18.0218987149">
        <ele>25</ele>
        <time>2011-04-01T12:35:04Z</time>
      </trkpt>
      <trkpt lat="59.3308615637" lon="18.0221716295">
        <ele>24.2</ele>
        <time>2011-04-01T12:35:08Z</time>
      </trkpt>
      <trkpt lat="59.3307928322" lon="18.0223846974">
        <ele>23.6</ele>
        <time>2011-04-01T12:35:11Z</time>
      </trkpt>
      <trkpt lat="59.3307213346" lon="18.0226770581">
        <ele>23.4</ele>
        <time>2011-04-01T12:35:15Z</time>
      </trkpt>
      <trkpt lat="59.3306734739" lon="18.0228136831">
        <ele>23.2</ele>
        <time>2011-04-01T12:35:17Z</time>
      </trkpt>
      <trkpt lat="59.3306372641" lon="18.0228784751">
        <ele>23.2</ele>
        <time>2011-04-01T12:35:18Z</time>
      </trkpt>
      <trkpt lat="59.3306040718" lon="18.0232026032">
        <ele>22</ele>
        <time>2011-04-01T12:35:24Z</time>
      </trkpt>
      <trkpt lat="59.3306220929" lon="18.0235851531">
        <ele>21.4</ele>
        <time>2011-04-01T12:35:29Z</time>
      </trkpt>
      <trkpt lat="59.3305491703" lon="18.0237442416">
        <ele>21</ele>
        <time>2011-04-01T12:35:33Z</time>
      </trkpt>
      <trkpt lat="59.3305006391" lon="18.0238751669">
        <ele>21</ele>
        <time>2011-04-01T12:35:36Z</time>
      </trkpt>
      <trkpt lat="59.3303589012" lon="18.0240468282">
        <ele>20.8</ele>
        <time>2011-04-01T12:35:40Z</time>
      </trkpt>
      <trkpt lat="59.3303907524" lon="18.0241560443">
        <ele>20.8</ele>
        <time>2011-04-01T12:35:42Z</time>
      </trkpt>
      <trkpt lat="59.3304318237" lon="18.0243983651">
        <ele>19.8</ele>
        <time>2011-04-01T12:35:47Z</time>
      </trkpt>
      <trkpt lat="59.3303487591" lon="18.0245675118">
        <ele>19.4</ele>
        <time>2011-04-01T12:35:51Z</time>
      </trkpt>
      <trkpt lat="59.330328894" lon="18.0246162945">
        <ele>19.2</ele>
        <time>2011-04-01T12:35:52Z</time>
      </trkpt>
      <trkpt lat="59.3302749146" lon="18.0247720302">
        <ele>19</ele>
        <time>2011-04-01T12:35:56Z</time>
      </trkpt>
      <trkpt lat="59.3302652754" lon="18.0249110859">
        <ele>18.8</ele>
        <time>2011-04-01T12:36:01Z</time>
      </trkpt>
      <trkpt lat="59.3302370284" lon="18.0249427695">
        <ele>18.8</ele>
        <time>2011-04-01T12:36:02Z</time>
      </trkpt>
      <trkpt lat="59.330153377" lon="18.0250770475">
        <ele>19</ele>
        <time>2011-04-01T12:36:05Z</time>
      </trkpt>
      <trkpt lat="59.3300226194" lon="18.0253750241">
        <ele>19.6</ele>
        <time>2011-04-01T12:36:10Z</time>
      </trkpt>
      <trkpt lat="59.3299447515" lon="18.0256827236">
        <ele>20</ele>
        <time>2011-04-01T12:36:15Z</time>
      </trkpt>
      <trkpt lat="59.3299103857" lon="18.0258367829">
        <ele>20.2</ele>
        <time>2011-04-01T12:36:17Z</time>
      </trkpt>
      <trkpt lat="59.3298455936" lon="18.0259811192">
        <ele>20.2</ele>
        <time>2011-04-01T12:36:19Z</time>
      </trkpt>
      <trkpt lat="59.3297944641" lon="18.0261068477">
        <ele>20.2</ele>
        <time>2011-04-01T12:36:21Z</time>
      </trkpt>
      <trkpt lat="59.3297127405" lon="18.0263211729">
        <ele>20.4</ele>
        <time>2011-04-01T12:36:24Z</time>
      </trkpt>
      <trkpt lat="59.3296157619" lon="18.0265697801">
        <ele>20.4</ele>
        <time>2011-04-01T12:36:28Z</time>
      </trkpt>
      <trkpt lat="59.3295609443" lon="18.0268602129">
        <ele>20.4</ele>
        <time>2011-04-01T12:36:33Z</time>
      </trkpt>
      <trkpt lat="59.3295472818" lon="18.0269335545">
        <ele>20.4</ele>
        <time>2011-04-01T12:36:34Z</time>
      </trkpt>
      <trkpt lat="59.3294698331" lon="18.0271884481">
        <ele>20.4</ele>
        <time>2011-04-01T12:36:38Z</time>
      </trkpt>
      <trkpt lat="59.329408729" lon="18.0274256559">
        <ele>21</ele>
        <time>2011-04-01T12:36:41Z</time>
      </trkpt>
      <trkpt lat="59.3293839186" lon="18.0275637896">
        <ele>21.4</ele>
        <time>2011-04-01T12:36:44Z</time>
      </trkpt>
      <trkpt lat="59.3292981718" lon="18.0278768536">
        <ele>22</ele>
        <time>2011-04-01T12:36:49Z</time>
      </trkpt>
      <trkpt lat="59.3291551765" lon="18.0281621734">
        <ele>22.2</ele>
        <time>2011-04-01T12:36:53Z</time>
      </trkpt>
      <trkpt lat="59.329003548" lon="18.0283705475">
        <ele>22.2</ele>
        <time>2011-04-01T12:36:56Z</time>
      </trkpt>
      <trkpt lat="59.3289571122" lon="18.02848144">
        <ele>22.4</ele>
        <time>2011-04-01T12:36:58Z</time>
      </trkpt>
      <trkpt lat="59.3288604689" lon="18.0285820228">
        <ele>22.4</ele>
        <time>2011-04-01T12:37:00Z</time>
      </trkpt>
      <trkpt lat="59.3287750574" lon="18.0288972661">
        <ele>22.4</ele>
        <time>2011-04-01T12:37:04Z</time>
      </trkpt>
      <trkpt lat="59.3286936691" lon="18.0292457855">
        <ele>22.4</ele>
        <time>2011-04-01T12:37:08Z</time>
      </trkpt>
      <trkpt lat="59.3286168909" lon="18.0295886052">
        <ele>22.4</ele>
        <time>2011-04-01T12:37:12Z</time>
      </trkpt>
      <trkpt lat="59.3285750652" lon="18.0297649604">
        <ele>22.6</ele>
        <time>2011-04-01T12:37:14Z</time>
      </trkpt>
      <trkpt lat="59.3285339939" lon="18.0299486078">
        <ele>22.6</ele>
        <time>2011-04-01T12:37:16Z</time>
      </trkpt>
      <trkpt lat="59.328451516" lon="18.0301345183">
        <ele>22.4</ele>
        <time>2011-04-01T12:37:19Z</time>
      </trkpt>
      <trkpt lat="59.3283681999" lon="18.0304093608">
        <ele>21.4</ele>
        <time>2011-04-01T12:37:25Z</time>
      </trkpt>
      <trkpt lat="59.3283072635" lon="18.0306432997">
        <ele>21</ele>
        <time>2011-04-01T12:37:30Z</time>
      </trkpt>
      <trkpt lat="59.3283096105" lon="18.0308947567">
        <ele>20.8</ele>
        <time>2011-04-01T12:37:34Z</time>
      </trkpt>
      <trkpt lat="59.3283002227" lon="18.031054348">
        <ele>20.4</ele>
        <time>2011-04-01T12:37:37Z</time>
      </trkpt>
      <trkpt lat="59.3282870632" lon="18.0311666655">
        <ele>20</ele>
        <time>2011-04-01T12:37:39Z</time>
      </trkpt>
      <trkpt lat="59.3282809444" lon="18.0312773066">
        <ele>19.6</ele>
        <time>2011-04-01T12:37:41Z</time>
      </trkpt>
      <trkpt lat="59.3281992208" lon="18.0313422663">
        <ele>19.2</ele>
        <time>2011-04-01T12:37:45Z</time>
      </trkpt>
      <trkpt lat="59.3281085287" lon="18.0313721897">
        <ele>18.8</ele>
        <time>2011-04-01T12:37:50Z</time>
      </trkpt>
      <trkpt lat="59.3280087841" lon="18.031429019">
        <ele>18.6</ele>
        <time>2011-04-01T12:37:54Z</time>
      </trkpt>
      <trkpt lat="59.3279823811" lon="18.0315913764">
        <ele>18.6</ele>
        <time>2011-04-01T12:37:57Z</time>
      </trkpt>
      <trkpt lat="59.3279814591" lon="18.031649882">
        <ele>18.6</ele>
        <time>2011-04-01T12:37:58Z</time>
      </trkpt>
      <trkpt lat="59.3279845604" lon="18.0318830665">
        <ele>18.6</ele>
        <time>2011-04-01T12:38:02Z</time>
      </trkpt>
      <trkpt lat="59.3279864882" lon="18.0322170014">
        <ele>18.4</ele>
        <time>2011-04-01T12:38:07Z</time>
      </trkpt>
      <trkpt lat="59.3279617616" lon="18.0324662791">
        <ele>18.4</ele>
        <time>2011-04-01T12:38:11Z</time>
      </trkpt>
      <trkpt lat="59.3279520386" lon="18.0325244495">
        <ele>18.4</ele>
        <time>2011-04-01T12:38:12Z</time>
      </trkpt>
      <trkpt lat="59.3279440758" lon="18.0328157205">
        <ele>18</ele>
        <time>2011-04-01T12:38:17Z</time>
      </trkpt>
      <trkpt lat="59.3279259709" lon="18.0328605637">
        <ele>17.8</ele>
        <time>2011-04-01T12:38:18Z</time>
      </trkpt>
      <trkpt lat="59.327904178" lon="18.0329165548">
        <ele>17.6</ele>
        <time>2011-04-01T12:38:19Z</time>
      </trkpt>
      <trkpt lat="59.3278091272" lon="18.033271612">
        <ele>17</ele>
        <time>2011-04-01T12:38:24Z</time>
      </trkpt>
      <trkpt lat="59.3278004939" lon="18.0335803174">
        <ele>16.8</ele>
        <time>2011-04-01T12:38:28Z</time>
      </trkpt>
      <trkpt lat="59.3277698999" lon="18.0338715885">
        <ele>16.6</ele>
        <time>2011-04-01T12:38:32Z</time>
      </trkpt>
      <trkpt lat="59.3277020904" lon="18.0341711576">
        <ele>16.4</ele>
        <time>2011-04-01T12:38:36Z</time>
      </trkpt>
      <trkpt lat="59.3276827282" lon="18.0342604248">
        <ele>16.4</ele>
        <time>2011-04-01T12:38:37Z</time>
      </trkpt>
      <trkpt lat="59.3276010885" lon="18.034633587">
        <ele>16.4</ele>
        <time>2011-04-01T12:38:42Z</time>
      </trkpt>
      <trkpt lat="59.3275552395" lon="18.0348597306">
        <ele>15.8</ele>
        <time>2011-04-01T12:38:45Z</time>
      </trkpt>
      <trkpt lat="59.3275128271" lon="18.034999876">
        <ele>15.4</ele>
        <time>2011-04-01T12:38:47Z</time>
      </trkpt>
      <trkpt lat="59.3274311873" lon="18.0353443721">
        <ele>15</ele>
        <time>2011-04-01T12:38:52Z</time>
      </trkpt>
      <trkpt lat="59.3274025213" lon="18.0355777242">
        <ele>14.8</ele>
        <time>2011-04-01T12:38:55Z</time>
      </trkpt>
      <trkpt lat="59.3273725979" lon="18.0357461166">
        <ele>14.6</ele>
        <time>2011-04-01T12:38:57Z</time>
      </trkpt>
      <trkpt lat="59.3273321971" lon="18.036013583">
        <ele>14.6</ele>
        <time>2011-04-01T12:39:00Z</time>
      </trkpt>
      <trkpt lat="59.3273151819" lon="18.0361720009">
        <ele>14.4</ele>
        <time>2011-04-01T12:39:02Z</time>
      </trkpt>
      <trkpt lat="59.327310488" lon="18.0363247191">
        <ele>14.4</ele>
        <time>2011-04-01T12:39:04Z</time>
      </trkpt>
      <trkpt lat="59.3272769604" lon="18.036627641">
        <ele>14.2</ele>
        <time>2011-04-01T12:39:08Z</time>
      </trkpt>
      <trkpt lat="59.3272522338" lon="18.0370030663">
        <ele>13.4</ele>
        <time>2011-04-01T12:39:13Z</time>
      </trkpt>
      <trkpt lat="59.3272245735" lon="18.0372344067">
        <ele>13</ele>
        <time>2011-04-01T12:39:16Z</time>
      </trkpt>
      <trkpt lat="59.3272145152" lon="18.0375022923">
        <ele>12.6</ele>
        <time>2011-04-01T12:39:20Z</time>
      </trkpt>
      <trkpt lat="59.3271768805" lon="18.0376229916">
        <ele>12.6</ele>
        <time>2011-04-01T12:39:23Z</time>
      </trkpt>
      <trkpt lat="59.3271343005" lon="18.0379498019">
        <ele>12.4</ele>
        <time>2011-04-01T12:39:30Z</time>
      </trkpt>
      <trkpt lat="59.3271295228" lon="18.0379924658">
        <ele>12.4</ele>
        <time>2011-04-01T12:39:31Z</time>
      </trkpt>
      <trkpt lat="59.3270986774" lon="18.0382108981">
        <ele>12.2</ele>
        <time>2011-04-01T12:39:35Z</time>
      </trkpt>
      <trkpt lat="59.3270944864" lon="18.0382765284">
        <ele>12.2</ele>
        <time>2011-04-01T12:39:36Z</time>
      </trkpt>
      <trkpt lat="59.3270688378" lon="18.0384912726">
        <ele>12.2</ele>
        <time>2011-04-01T12:39:40Z</time>
      </trkpt>
      <trkpt lat="59.3270018664" lon="18.0387779336">
        <ele>12.2</ele>
        <time>2011-04-01T12:39:45Z</time>
      </trkpt>
      <trkpt lat="59.3269850188" lon="18.0388378642">
        <ele>12.2</ele>
        <time>2011-04-01T12:39:46Z</time>
      </trkpt>
      <trkpt lat="59.326925675" lon="18.0391024808">
        <ele>12.2</ele>
        <time>2011-04-01T12:39:51Z</time>
      </trkpt>
      <trkpt lat="59.3269052231" lon="18.0392849547">
        <ele>12.8</ele>
        <time>2011-04-01T12:39:55Z</time>
      </trkpt>
      <trkpt lat="59.3268612181" lon="18.0396045566">
        <ele>13.4</ele>
        <time>2011-04-01T12:40:00Z</time>
      </trkpt>
      <trkpt lat="59.3268014552" lon="18.0399545009">
        <ele>13.8</ele>
        <time>2011-04-01T12:40:06Z</time>
      </trkpt>
      <trkpt lat="59.326746889" lon="18.0402184469">
        <ele>14</ele>
        <time>2011-04-01T12:40:11Z</time>
      </trkpt>
      <trkpt lat="59.3267481463" lon="18.0402682354">
        <ele>14</ele>
        <time>2011-04-01T12:40:12Z</time>
      </trkpt>
      <trkpt lat="59.3267152893" lon="18.0404977319">
        <ele>14</ele>
        <time>2011-04-01T12:40:16Z</time>
      </trkpt>
      <trkpt lat="59.3266668419" lon="18.040757906">
        <ele>14.2</ele>
        <time>2011-04-01T12:40:20Z</time>
      </trkpt>
      <trkpt lat="59.3266261897" lon="18.0408603329">
        <ele>14.2</ele>
        <time>2011-04-01T12:40:22Z</time>
      </trkpt>
      <trkpt lat="59.3265845316" lon="18.0409580658">
        <ele>14.2</ele>
        <time>2011-04-01T12:40:24Z</time>
      </trkpt>
      <trkpt lat="59.3266086715" lon="18.0412852952">
        <ele>14.2</ele>
        <time>2011-04-01T12:40:30Z</time>
      </trkpt>
      <trkpt lat="59.3266242618" lon="18.0413184875">
        <ele>14.2</ele>
        <time>2011-04-01T12:40:31Z</time>
      </trkpt>
      <trkpt lat="59.3266364156" lon="18.0413772446">
        <ele>14.2</ele>
        <time>2011-04-01T12:40:35Z</time>
      </trkpt>
      <trkpt lat="59.3266428697" lon="18.0413766579">
        <ele>14.2</ele>
        <time>2011-04-01T12:40:36Z</time>
      </trkpt>
      <trkpt lat="59.3267038899" lon="18.0414457247">
        <ele>14.2</ele>
        <time>2011-04-01T12:40:41Z</time>
      </trkpt>
      <trkpt lat="59.3267815901" lon="18.0415013806">
        <ele>14.2</ele>
        <time>2011-04-01T12:40:45Z</time>
      </trkpt>
      <trkpt lat="59.3268079931" lon="18.0415127799">
        <ele>14.2</ele>
        <time>2011-04-01T12:40:46Z</time>
      </trkpt>
      <trkpt lat="59.3269888745" lon="18.0416450463">
        <ele>14.2</ele>
        <time>2011-04-01T12:40:53Z</time>
      </trkpt>
      <trkpt lat="59.3270689216" lon="18.0417827609">
        <ele>14.2</ele>
        <time>2011-04-01T12:40:57Z</time>
      </trkpt>
      <trkpt lat="59.3271840051" lon="18.042016616">
        <ele>14.2</ele>
        <time>2011-04-01T12:41:02Z</time>
      </trkpt>
      <trkpt lat="59.3272937242" lon="18.0422201285">
        <ele>14.2</ele>
        <time>2011-04-01T12:41:07Z</time>
      </trkpt>
      <trkpt lat="59.327325324" lon="18.0422419214">
        <ele>14.2</ele>
        <time>2011-04-01T12:41:08Z</time>
      </trkpt>
      <trkpt lat="59.3274212129" lon="18.0423868445">
        <ele>14.6</ele>
        <time>2011-04-01T12:41:12Z</time>
      </trkpt>
      <trkpt lat="59.3274457719" lon="18.0424175222">
        <ele>14.8</ele>
        <time>2011-04-01T12:41:13Z</time>
      </trkpt>
      <trkpt lat="59.327630928" lon="18.0425752696">
        <ele>16.8</ele>
        <time>2011-04-01T12:41:19Z</time>
      </trkpt>
      <trkpt lat="59.3276637851" lon="18.0426098868">
        <ele>17.2</ele>
        <time>2011-04-01T12:41:20Z</time>
      </trkpt>
      <trkpt lat="59.3278341891" lon="18.0427313406">
        <ele>19.4</ele>
        <time>2011-04-01T12:41:25Z</time>
      </trkpt>
      <trkpt lat="59.3279372027" lon="18.0428224518">
        <ele>21.6</ele>
        <time>2011-04-01T12:41:29Z</time>
      </trkpt>
      <trkpt lat="59.32794768" lon="18.0428206916">
        <ele>22</ele>
        <time>2011-04-01T12:41:30Z</time>
      </trkpt>
      <trkpt lat="59.3280310799" lon="18.0428653672">
        <ele>23.8</ele>
        <time>2011-04-01T12:41:33Z</time>
      </trkpt>
      <trkpt lat="59.3280625959" lon="18.0428942009">
        <ele>24.2</ele>
        <time>2011-04-01T12:41:34Z</time>
      </trkpt>
      <trkpt lat="59.328239454" lon="18.0430082785">
        <ele>27.2</ele>
        <time>2011-04-01T12:41:39Z</time>
      </trkpt>
      <trkpt lat="59.3283541184" lon="18.0431296485">
        <ele>30</ele>
        <time>2011-04-01T12:41:44Z</time>
      </trkpt>
      <trkpt lat="59.3284677769" lon="18.0431818677">
        <ele>32.8</ele>
        <time>2011-04-01T12:41:49Z</time>
      </trkpt>
      <trkpt lat="59.3284977841" lon="18.0431852205">
        <ele>33.2</ele>
        <time>2011-04-01T12:41:50Z</time>
      </trkpt>
      <trkpt lat="59.328657124" lon="18.0433045787">
        <ele>35.8</ele>
        <time>2011-04-01T12:41:55Z</time>
      </trkpt>
      <trkpt lat="59.328766424" lon="18.0433971149">
        <ele>37.8</ele>
        <time>2011-04-01T12:41:59Z</time>
      </trkpt>
      <trkpt lat="59.3289380853" lon="18.0435109411">
        <ele>40.4</ele>
        <time>2011-04-01T12:42:05Z</time>
      </trkpt>
      <trkpt lat="59.3289972615" lon="18.0434624937">
        <ele>42.4</ele>
        <time>2011-04-01T12:42:10Z</time>
      </trkpt>
      <trkpt lat="59.32900908" lon="18.043428547">
        <ele>42.8</ele>
        <time>2011-04-01T12:42:11Z</time>
      </trkpt>
      <trkpt lat="59.3290216529" lon="18.0433832848">
        <ele>44</ele>
        <time>2011-04-01T12:42:15Z</time>
      </trkpt>
      <trkpt lat="59.329039674" lon="18.0434131243">
        <ele>44.4</ele>
        <time>2011-04-01T12:42:17Z</time>
      </trkpt>
      <trkpt lat="59.3292548373" lon="18.0435219214">
        <ele>45.4</ele>
        <time>2011-04-01T12:42:24Z</time>
      </trkpt>
      <trkpt lat="59.3293889477" lon="18.043570704">
        <ele>45.6</ele>
        <time>2011-04-01T12:42:28Z</time>
      </trkpt>
      <trkpt lat="59.3294463637" lon="18.0436063271">
        <ele>45.8</ele>
        <time>2011-04-01T12:42:30Z</time>
      </trkpt>
      <trkpt lat="59.3295806418" lon="18.0436646651">
        <ele>46</ele>
        <time>2011-04-01T12:42:34Z</time>
      </trkpt>
      <trkpt lat="59.3297238885" lon="18.0437306307">
        <ele>46.2</ele>
        <time>2011-04-01T12:42:39Z</time>
      </trkpt>
      <trkpt lat="59.329877361" lon="18.0437820117">
        <ele>47.2</ele>
        <time>2011-04-01T12:42:45Z</time>
      </trkpt>
      <trkpt lat="59.3300044306" lon="18.04366148">
        <ele>47.6</ele>
        <time>2011-04-01T12:42:49Z</time>
      </trkpt>
      <trkpt lat="59.3301993098" lon="18.0436308023">
        <ele>47.2</ele>
        <time>2011-04-01T12:42:55Z</time>
      </trkpt>
      <trkpt lat="59.3303447358" lon="18.043763823">
        <ele>46.4</ele>
        <time>2011-04-01T12:43:00Z</time>
      </trkpt>
      <trkpt lat="59.3304994657" lon="18.0438975981">
        <ele>45.4</ele>
        <time>2011-04-01T12:43:05Z</time>
      </trkpt>
      <trkpt lat="59.3306111964" lon="18.0439876197">
        <ele>45</ele>
        <time>2011-04-01T12:43:09Z</time>
      </trkpt>
      <trkpt lat="59.3307717098" lon="18.0440985123">
        <ele>44.4</ele>
        <time>2011-04-01T12:43:15Z</time>
      </trkpt>
      <trkpt lat="59.3307951791" lon="18.0441168686">
        <ele>44.4</ele>
        <time>2011-04-01T12:43:16Z</time>
      </trkpt>
      <trkpt lat="59.3309096758" lon="18.0442833332">
        <ele>44.2</ele>
        <time>2011-04-01T12:43:21Z</time>
      </trkpt>
      <trkpt lat="59.3310784035" lon="18.044454743">
        <ele>44</ele>
        <time>2011-04-01T12:43:26Z</time>
      </trkpt>
      <trkpt lat="59.3312808264" lon="18.0446051981">
        <ele>44</ele>
        <time>2011-04-01T12:43:32Z</time>
      </trkpt>
      <trkpt lat="59.3314307786" lon="18.0446518853">
        <ele>44.6</ele>
        <time>2011-04-01T12:43:37Z</time>
      </trkpt>
      <trkpt lat="59.3314615401" lon="18.0446324393">
        <ele>44.8</ele>
        <time>2011-04-01T12:43:38Z</time>
      </trkpt>
      <trkpt lat="59.3315615362" lon="18.0446228839">
        <ele>45.2</ele>
        <time>2011-04-01T12:43:42Z</time>
      </trkpt>
      <trkpt lat="59.3316200419" lon="18.04462565">
        <ele>45.4</ele>
        <time>2011-04-01T12:43:45Z</time>
      </trkpt>
      <trkpt lat="59.3317119075" lon="18.0447428289">
        <ele>45.8</ele>
        <time>2011-04-01T12:43:51Z</time>
      </trkpt>
      <trkpt lat="59.3318144181" lon="18.0447906058">
        <ele>45.8</ele>
        <time>2011-04-01T12:43:55Z</time>
      </trkpt>
      <trkpt lat="59.3318819762" lon="18.0448577448">
        <ele>46</ele>
        <time>2011-04-01T12:43:59Z</time>
      </trkpt>
      <trkpt lat="59.3319962215" lon="18.0449028394">
        <ele>46</ele>
        <time>2011-04-01T12:44:03Z</time>
      </trkpt>
      <trkpt lat="59.33213863" lon="18.0450149892">
        <ele>46</ele>
        <time>2011-04-01T12:44:08Z</time>
      </trkpt>
      <trkpt lat="59.3322070263" lon="18.045039632">
        <ele>46</ele>
        <time>2011-04-01T12:44:11Z</time>
      </trkpt>
      <trkpt lat="59.3323550507" lon="18.0452037496">
        <ele>46.2</ele>
        <time>2011-04-01T12:44:16Z</time>
      </trkpt>
      <trkpt lat="59.332407689" lon="18.0452459944">
        <ele>46.2</ele>
        <time>2011-04-01T12:44:19Z</time>
      </trkpt>
      <trkpt lat="59.3325394525" lon="18.045319336">
        <ele>51.2</ele>
        <time>2011-04-01T12:46:41Z</time>
      </trkpt>
      <trkpt lat="59.3325438111" lon="18.04533325">
        <ele>51.2</ele>
        <time>2011-04-01T12:46:42Z</time>
      </trkpt>
      <trkpt lat="59.3323998938" lon="18.0452832938">
        <ele>52.2</ele>
        <time>2011-04-01T12:46:48Z</time>
      </trkpt>
      <trkpt lat="59.3322934437" lon="18.0452187532">
        <ele>52.6</ele>
        <time>2011-04-01T12:46:51Z</time>
      </trkpt>
      <trkpt lat="59.3322605867" lon="18.0451995587">
        <ele>53</ele>
        <time>2011-04-01T12:46:52Z</time>
      </trkpt>
      <trkpt lat="59.3321447488" lon="18.0450778535">
        <ele>54.2</ele>
        <time>2011-04-01T12:46:58Z</time>
      </trkpt>
      <trkpt lat="59.3320774422" lon="18.0450052662">
        <ele>54.6</ele>
        <time>2011-04-01T12:47:02Z</time>
      </trkpt>
      <trkpt lat="59.3320370414" lon="18.0449763487">
        <ele>55</ele>
        <time>2011-04-01T12:47:03Z</time>
      </trkpt>
      <trkpt lat="59.3318474428" lon="18.0448222893">
        <ele>56.2</ele>
        <time>2011-04-01T12:47:08Z</time>
      </trkpt>
      <trkpt lat="59.3316879353" lon="18.0447376322">
        <ele>57.4</ele>
        <time>2011-04-01T12:47:13Z</time>
      </trkpt>
      <trkpt lat="59.3315146814" lon="18.0445948884">
        <ele>58.2</ele>
        <time>2011-04-01T12:47:17Z</time>
      </trkpt>
      <trkpt lat="59.3313758771" lon="18.0444443495">
        <ele>58.6</ele>
        <time>2011-04-01T12:47:20Z</time>
      </trkpt>
      <trkpt lat="59.3312297806" lon="18.0442937267">
        <ele>58.4</ele>
        <time>2011-04-01T12:47:26Z</time>
      </trkpt>
      <trkpt lat="59.3311460454" lon="18.0442809862">
        <ele>58.2</ele>
        <time>2011-04-01T12:47:30Z</time>
      </trkpt>
      <trkpt lat="59.3310189758" lon="18.0442758733">
        <ele>58</ele>
        <time>2011-04-01T12:47:36Z</time>
      </trkpt>
      <trkpt lat="59.3309199856" lon="18.044273694">
        <ele>57.8</ele>
        <time>2011-04-01T12:47:40Z</time>
      </trkpt>
      <trkpt lat="59.3307743082" lon="18.0442356402">
        <ele>57.8</ele>
        <time>2011-04-01T12:47:45Z</time>
      </trkpt>
      <trkpt lat="59.3306282116" lon="18.0442118356">
        <ele>57.2</ele>
        <time>2011-04-01T12:47:49Z</time>
      </trkpt>
      <trkpt lat="59.3304851326" lon="18.0441343868">
        <ele>56.6</ele>
        <time>2011-04-01T12:47:53Z</time>
      </trkpt>
      <trkpt lat="59.3304141379" lon="18.0440882025">
        <ele>56.2</ele>
        <time>2011-04-01T12:47:56Z</time>
      </trkpt>
      <trkpt lat="59.3302941929" lon="18.0439764718">
        <ele>55.2</ele>
        <time>2011-04-01T12:48:00Z</time>
      </trkpt>
      <trkpt lat="59.3301999804" lon="18.0439167927">
        <ele>54.6</ele>
        <time>2011-04-01T12:48:04Z</time>
      </trkpt>
      <trkpt lat="59.3300709829" lon="18.0438392601">
        <ele>54.2</ele>
        <time>2011-04-01T12:48:09Z</time>
      </trkpt>
      <trkpt lat="59.3299413149" lon="18.0438028827">
        <ele>53.4</ele>
        <time>2011-04-01T12:48:14Z</time>
      </trkpt>
      <trkpt lat="59.3298739245" lon="18.0437369171">
        <ele>52.4</ele>
        <time>2011-04-01T12:48:19Z</time>
      </trkpt>
      <trkpt lat="59.3298728348" lon="18.0437454667">
        <ele>52</ele>
        <time>2011-04-01T12:48:20Z</time>
      </trkpt>
      <trkpt lat="59.3298607649" lon="18.043748065">
        <ele>51.4</ele>
        <time>2011-04-01T12:48:22Z</time>
      </trkpt>
      <trkpt lat="59.3297922848" lon="18.0436617315">
        <ele>50.6</ele>
        <time>2011-04-01T12:48:26Z</time>
      </trkpt>
      <trkpt lat="59.3296338668" lon="18.0435629089">
        <ele>50</ele>
        <time>2011-04-01T12:48:31Z</time>
      </trkpt>
      <trkpt lat="59.3294732696" lon="18.04343366">
        <ele>49.6</ele>
        <time>2011-04-01T12:48:36Z</time>
      </trkpt>
      <trkpt lat="59.3292976688" lon="18.0433014774">
        <ele>49.4</ele>
        <time>2011-04-01T12:48:41Z</time>
      </trkpt>
      <trkpt lat="59.3291280192" lon="18.0432666087">
        <ele>49.2</ele>
        <time>2011-04-01T12:48:46Z</time>
      </trkpt>
      <trkpt lat="59.3289913104" lon="18.0434058321">
        <ele>49.2</ele>
        <time>2011-04-01T12:48:51Z</time>
      </trkpt>
      <trkpt lat="59.3289726188" lon="18.0434153036">
        <ele>49.2</ele>
        <time>2011-04-01T12:48:52Z</time>
      </trkpt>
      <trkpt lat="59.3288099261" lon="18.0432838754">
        <ele>49.2</ele>
        <time>2011-04-01T12:48:57Z</time>
      </trkpt>
      <trkpt lat="59.3286773244" lon="18.0431495136">
        <ele>49.2</ele>
        <time>2011-04-01T12:49:01Z</time>
      </trkpt>
      <trkpt lat="59.3285868837" lon="18.0430541275">
        <ele>48.8</ele>
        <time>2011-04-01T12:49:05Z</time>
      </trkpt>
      <trkpt lat="59.3284881449" lon="18.0429355237">
        <ele>48.2</ele>
        <time>2011-04-01T12:49:09Z</time>
      </trkpt>
      <trkpt lat="59.3283578902" lon="18.0428086217">
        <ele>47.8</ele>
        <time>2011-04-01T12:49:13Z</time>
      </trkpt>
      <trkpt lat="59.3282631747" lon="18.0427683886">
        <ele>47.6</ele>
        <time>2011-04-01T12:49:16Z</time>
      </trkpt>
      <trkpt lat="59.328169046" lon="18.0426909398">
        <ele>47.4</ele>
        <time>2011-04-01T12:49:20Z</time>
      </trkpt>
      <trkpt lat="59.3280673736" lon="18.0426036004">
        <ele>47.2</ele>
        <time>2011-04-01T12:49:24Z</time>
      </trkpt>
      <trkpt lat="59.3278910184" lon="18.0424437576">
        <ele>47.2</ele>
        <time>2011-04-01T12:49:30Z</time>
      </trkpt>
      <trkpt lat="59.327864783" lon="18.0424321067">
        <ele>47.2</ele>
        <time>2011-04-01T12:49:31Z</time>
      </trkpt>
      <trkpt lat="59.3276839855" lon="18.0422942245">
        <ele>47.2</ele>
        <time>2011-04-01T12:49:37Z</time>
      </trkpt>
      <trkpt lat="59.3275378051" lon="18.0422133391">
        <ele>47.6</ele>
        <time>2011-04-01T12:49:41Z</time>
      </trkpt>
      <trkpt lat="59.3273496315" lon="18.042075876">
        <ele>48.4</ele>
        <time>2011-04-01T12:49:47Z</time>
      </trkpt>
      <trkpt lat="59.3272694167" lon="18.0419809929">
        <ele>48.6</ele>
        <time>2011-04-01T12:49:53Z</time>
      </trkpt>
      <trkpt lat="59.3273420878" lon="18.0432045826">
        <ele>52.4</ele>
        <time>2011-04-01T13:30:31Z</time>
      </trkpt>
      <trkpt lat="59.3272836659" lon="18.0432015652">
        <ele>52.4</ele>
        <time>2011-04-01T13:30:38Z</time>
      </trkpt>
      <trkpt lat="59.3272962388" lon="18.0431878188">
        <ele>52.4</ele>
        <time>2011-04-01T13:30:53Z</time>
      </trkpt>
      <trkpt lat="59.3273186184" lon="18.0431972066">
        <ele>52.4</ele>
        <time>2011-04-01T13:30:59Z</time>
      </trkpt>
      <trkpt lat="59.3272746973" lon="18.0431741563">
        <ele>52.4</ele>
        <time>2011-04-01T13:31:02Z</time>
      </trkpt>
      <trkpt lat="59.3272688299" lon="18.0431641819">
        <ele>52.4</ele>
        <time>2011-04-01T13:31:07Z</time>
      </trkpt>
      <trkpt lat="59.3272615377" lon="18.0431553809">
        <ele>52.2</ele>
        <time>2011-04-01T13:31:11Z</time>
      </trkpt>
      <trkpt lat="59.3271648106" lon="18.0431252061">
        <ele>51.2</ele>
        <time>2011-04-01T13:31:17Z</time>
      </trkpt>
      <trkpt lat="59.3271500584" lon="18.0431175785">
        <ele>51</ele>
        <time>2011-04-01T13:31:20Z</time>
      </trkpt>
      <trkpt lat="59.327082165" lon="18.0430523673">
        <ele>49.4</ele>
        <time>2011-04-01T13:31:28Z</time>
      </trkpt>
      <trkpt lat="59.3271543332" lon="18.0430754176">
        <ele>48.2</ele>
        <time>2011-04-01T13:31:33Z</time>
      </trkpt>
      <trkpt lat="59.3272071392" lon="18.0430458295">
        <ele>47.2</ele>
        <time>2011-04-01T13:31:39Z</time>
      </trkpt>
      <trkpt lat="59.327203954" lon="18.0430242042">
        <ele>46.8</ele>
        <time>2011-04-01T13:31:44Z</time>
      </trkpt>
      <trkpt lat="59.3271287684" lon="18.0429496891">
        <ele>46.4</ele>
        <time>2011-04-01T13:31:49Z</time>
      </trkpt>
      <trkpt lat="59.3271343843" lon="18.0429666205">
        <ele>46.4</ele>
        <time>2011-04-01T13:31:53Z</time>
      </trkpt>
      <trkpt lat="59.327133127" lon="18.0430444045">
        <ele>46.2</ele>
        <time>2011-04-01T13:32:01Z</time>
      </trkpt>
      <trkpt lat="59.3271396649" lon="18.0430439854">
        <ele>46.2</ele>
        <time>2011-04-01T13:32:13Z</time>
      </trkpt>
      <trkpt lat="59.3271517348" lon="18.0430547143">
        <ele>46.2</ele>
        <time>2011-04-01T13:32:19Z</time>
      </trkpt>
      <trkpt lat="59.3271171176" lon="18.0430734897">
        <ele>46</ele>
        <time>2011-04-01T13:32:37Z</time>
      </trkpt>
      <trkpt lat="59.3271811553" lon="18.0430716457">
        <ele>46</ele>
        <time>2011-04-01T13:32:44Z</time>
      </trkpt>
      <trkpt lat="59.3271533274" lon="18.0430698855">
        <ele>46</ele>
        <time>2011-04-01T13:32:49Z</time>
      </trkpt>
      <trkpt lat="59.3271712646" lon="18.0430760881">
        <ele>46</ele>
        <time>2011-04-01T13:32:53Z</time>
      </trkpt>
      <trkpt lat="59.3272832468" lon="18.0431298999">
        <ele>46</ele>
        <time>2011-04-01T13:33:18Z</time>
      </trkpt>
      <trkpt lat="59.3272176165" lon="18.0431333365">
        <ele>46</ele>
        <time>2011-04-01T13:34:04Z</time>
      </trkpt>
      <trkpt lat="59.3272120845" lon="18.0431276368">
        <ele>44.4</ele>
        <time>2011-04-01T13:34:47Z</time>
      </trkpt>
      <trkpt lat="59.3271952369" lon="18.0432533653">
        <ele>44.2</ele>
        <time>2011-04-01T13:34:57Z</time>
      </trkpt>
      <trkpt lat="59.3271834184" lon="18.0432313209">
        <ele>44.2</ele>
        <time>2011-04-01T13:34:58Z</time>
      </trkpt>
      <trkpt lat="59.3271000185" lon="18.0431087775">
        <ele>44</ele>
        <time>2011-04-01T13:35:03Z</time>
      </trkpt>
      <trkpt lat="59.3269996033" lon="18.042964525">
        <ele>44</ele>
        <time>2011-04-01T13:35:08Z</time>
      </trkpt>
      <trkpt lat="59.3269805764" lon="18.0429372">
        <ele>44</ele>
        <time>2011-04-01T13:35:10Z</time>
      </trkpt>
      <trkpt lat="59.3269865276" lon="18.0428731623">
        <ele>44</ele>
        <time>2011-04-01T13:35:14Z</time>
      </trkpt>
      <trkpt lat="59.3270358969" lon="18.0429770979">
        <ele>44</ele>
        <time>2011-04-01T13:35:19Z</time>
      </trkpt>
      <trkpt lat="59.327120638" lon="18.0430786865">
        <ele>44</ele>
        <time>2011-04-01T13:35:25Z</time>
      </trkpt>
      <trkpt lat="59.3271059696" lon="18.0430686282">
        <ele>44</ele>
        <time>2011-04-01T13:35:27Z</time>
      </trkpt>
      <trkpt lat="59.3269918082" lon="18.0431298999">
        <ele>44</ele>
        <time>2011-04-01T13:35:32Z</time>
      </trkpt>
      <trkpt lat="59.3269789" lon="18.0431882379">
        <ele>44</ele>
        <time>2011-04-01T13:35:35Z</time>
      </trkpt>
      <trkpt lat="59.3269642317" lon="18.0431889085">
        <ele>44</ele>
        <time>2011-04-01T13:35:42Z</time>
      </trkpt>
      <trkpt lat="59.3270039619" lon="18.0430744117">
        <ele>43.6</ele>
        <time>2011-04-01T13:36:36Z</time>
      </trkpt>
      <trkpt lat="59.3270054706" lon="18.0430929357">
        <ele>43.6</ele>
        <time>2011-04-01T13:36:40Z</time>
      </trkpt>
      <trkpt lat="59.3270268445" lon="18.0431005633">
        <ele>43.6</ele>
        <time>2011-04-01T13:36:42Z</time>
      </trkpt>
      <trkpt lat="59.3270597854" lon="18.0431222724">
        <ele>43.6</ele>
        <time>2011-04-01T13:36:50Z</time>
      </trkpt>
      <trkpt lat="59.3269589511" lon="18.0431342585">
        <ele>43.6</ele>
        <time>2011-04-01T13:36:55Z</time>
      </trkpt>
      <trkpt lat="59.3269607113" lon="18.0431480048">
        <ele>43.6</ele>
        <time>2011-04-01T13:36:58Z</time>
      </trkpt>
      <trkpt lat="59.3270055545" lon="18.0431429757">
        <ele>43.6</ele>
        <time>2011-04-01T13:37:03Z</time>
      </trkpt>
      <trkpt lat="59.3269774751" lon="18.0431459932">
        <ele>43.6</ele>
        <time>2011-04-01T13:37:08Z</time>
      </trkpt>
      <trkpt lat="59.3269623039" lon="18.0431356834">
        <ele>43.6</ele>
        <time>2011-04-01T13:37:10Z</time>
      </trkpt>
      <trkpt lat="59.3269476355" lon="18.0430858949">
        <ele>43.6</ele>
        <time>2011-04-01T13:37:17Z</time>
      </trkpt>
      <trkpt lat="59.3269065642" lon="18.0430808658">
        <ele>43.6</ele>
        <time>2011-04-01T13:37:21Z</time>
      </trkpt>
      <trkpt lat="59.3268511599" lon="18.0430770939">
        <ele>43.6</ele>
        <time>2011-04-01T13:37:26Z</time>
      </trkpt>
      <trkpt lat="59.3268168779" lon="18.043049266">
        <ele>43.6</ele>
        <time>2011-04-01T13:37:31Z</time>
      </trkpt>
      <trkpt lat="59.3267990245" lon="18.0430351844">
        <ele>43.6</ele>
        <time>2011-04-01T13:37:34Z</time>
      </trkpt>
      <trkpt lat="59.3267358249" lon="18.0430857273">
        <ele>43</ele>
        <time>2011-04-01T13:37:40Z</time>
      </trkpt>
      <trkpt lat="59.3267722862" lon="18.0430972943">
        <ele>42.4</ele>
        <time>2011-04-01T13:37:47Z</time>
      </trkpt>
      <trkpt lat="59.3267597972" lon="18.0430595758">
        <ele>41.8</ele>
        <time>2011-04-01T13:37:56Z</time>
      </trkpt>
      <trkpt lat="59.3266474797" lon="18.0430013216">
        <ele>41.8</ele>
        <time>2011-04-01T13:38:02Z</time>
      </trkpt>
      <trkpt lat="59.3265892255" lon="18.0429708115">
        <ele>41.6</ele>
        <time>2011-04-01T13:38:07Z</time>
      </trkpt>
      <trkpt lat="59.3265738866" lon="18.0429287343">
        <ele>41.6</ele>
        <time>2011-04-01T13:38:13Z</time>
      </trkpt>
      <trkpt lat="59.3265104356" lon="18.0429243757">
        <ele>41.6</ele>
        <time>2011-04-01T13:38:20Z</time>
      </trkpt>
      <trkpt lat="59.3265100165" lon="18.0429312489">
        <ele>40.6</ele>
        <time>2011-04-01T13:38:27Z</time>
      </trkpt>
      <trkpt lat="59.326557039" lon="18.042950192">
        <ele>39</ele>
        <time>2011-04-01T13:38:37Z</time>
      </trkpt>
      <trkpt lat="59.3265546921" lon="18.0429807859">
        <ele>37.2</ele>
        <time>2011-04-01T13:38:45Z</time>
      </trkpt>
      <trkpt lat="59.3266406904" lon="18.0430211029">
        <ele>35.2</ele>
        <time>2011-04-01T13:38:52Z</time>
      </trkpt>
      <trkpt lat="59.3267854458" lon="18.0430313288">
        <ele>33.6</ele>
        <time>2011-04-01T13:38:57Z</time>
      </trkpt>
      <trkpt lat="59.3269976755" lon="18.043018253">
        <ele>31.6</ele>
        <time>2011-04-01T13:39:03Z</time>
      </trkpt>
      <trkpt lat="59.3271124237" lon="18.043004842">
        <ele>30</ele>
        <time>2011-04-01T13:39:09Z</time>
      </trkpt>
      <trkpt lat="59.327114603" lon="18.0429929397">
        <ele>28.6</ele>
        <time>2011-04-01T13:39:13Z</time>
      </trkpt>
      <trkpt lat="59.3270300296" lon="18.0430720648">
        <ele>26.6</ele>
        <time>2011-04-01T13:39:19Z</time>
      </trkpt>
      <trkpt lat="59.327073867" lon="18.0430703046">
        <ele>24.8</ele>
        <time>2011-04-01T13:39:25Z</time>
      </trkpt>
      <trkpt lat="59.3271320373" lon="18.0430655269">
        <ele>23.4</ele>
        <time>2011-04-01T13:39:31Z</time>
      </trkpt>
      <trkpt lat="59.3269738709" lon="18.0432160658">
        <ele>20.6</ele>
        <time>2011-04-01T13:39:45Z</time>
      </trkpt>
      <trkpt lat="59.3269433608" lon="18.0432263756">
        <ele>20.2</ele>
        <time>2011-04-01T13:39:50Z</time>
      </trkpt>
      <trkpt lat="59.3270664071" lon="18.043242385">
        <ele>19.6</ele>
        <time>2011-04-01T13:40:18Z</time>
      </trkpt>
      <trkpt lat="59.3270469611" lon="18.0432148924">
        <ele>19.6</ele>
        <time>2011-04-01T13:40:26Z</time>
      </trkpt>
      <trkpt lat="59.3271367312" lon="18.0432169879">
        <ele>20.4</ele>
        <time>2011-04-01T13:40:34Z</time>
      </trkpt>
      <trkpt lat="59.3271900401" lon="18.0432085221">
        <ele>21</ele>
        <time>2011-04-01T13:40:39Z</time>
      </trkpt>
      <trkpt lat="59.3269498148" lon="18.0431469152">
        <ele>21.6</ele>
        <time>2011-04-01T13:41:15Z</time>
      </trkpt>
      <trkpt lat="59.3270341367" lon="18.0431777606">
        <ele>21.6</ele>
        <time>2011-04-01T13:41:25Z</time>
      </trkpt>
      <trkpt lat="59.3271438558" lon="18.0432262079">
        <ele>21.6</ele>
        <time>2011-04-01T13:41:56Z</time>
      </trkpt>
      <trkpt lat="59.327150729" lon="18.0432233581">
        <ele>21.6</ele>
        <time>2011-04-01T13:42:00Z</time>
      </trkpt>
      <trkpt lat="59.3272177842" lon="18.0431917583">
        <ele>21.6</ele>
        <time>2011-04-01T13:42:33Z</time>
      </trkpt>
      <trkpt lat="59.3272606157" lon="18.0431626731">
        <ele>21.6</ele>
        <time>2011-04-01T13:42:55Z</time>
      </trkpt>
      <trkpt lat="59.3271435205" lon="18.0432048341">
        <ele>21.6</ele>
        <time>2011-04-01T13:43:18Z</time>
      </trkpt>
      <trkpt lat="59.3270236594" lon="18.0431845499">
        <ele>21.6</ele>
        <time>2011-04-01T13:43:25Z</time>
      </trkpt>
      <trkpt lat="59.3270105836" lon="18.0431802751">
        <ele>21.6</ele>
        <time>2011-04-01T13:43:30Z</time>
      </trkpt>
      <trkpt lat="59.327020139" lon="18.0431824544">
        <ele>21.6</ele>
        <time>2011-04-01T13:43:31Z</time>
      </trkpt>
      <trkpt lat="59.3270739508" lon="18.0431920936">
        <ele>21.6</ele>
        <time>2011-04-01T13:43:37Z</time>
      </trkpt>
      <trkpt lat="59.3270709333" lon="18.0431805266">
        <ele>21.6</ele>
        <time>2011-04-01T13:43:57Z</time>
      </trkpt>
      <trkpt lat="59.3270574384" lon="18.0432283034">
        <ele>21.6</ele>
        <time>2011-04-01T13:44:13Z</time>
      </trkpt>
      <trkpt lat="59.3270454523" lon="18.0432319915">
        <ele>21.6</ele>
        <time>2011-04-01T13:44:19Z</time>
      </trkpt>
      <trkpt lat="59.3270424348" lon="18.0432283034">
        <ele>21.6</ele>
        <time>2011-04-01T13:44:21Z</time>
      </trkpt>
      <trkpt lat="59.3270213124" lon="18.0432650161">
        <ele>21.6</ele>
        <time>2011-04-01T13:44:26Z</time>
      </trkpt>
      <trkpt lat="59.327034472" lon="18.0432838754">
        <ele>21.6</ele>
        <time>2011-04-01T13:44:38Z</time>
      </trkpt>
      <trkpt lat="59.3270679996" lon="18.0432236934">
        <ele>21.6</ele>
        <time>2011-04-01T13:45:33Z</time>
      </trkpt>
      <trkpt lat="59.3270558459" lon="18.0432137189">
        <ele>21.6</ele>
        <time>2011-04-01T13:45:40Z</time>
      </trkpt>
      <trkpt lat="59.3270270121" lon="18.0432070134">
        <ele>21.6</ele>
        <time>2011-04-01T13:45:45Z</time>
      </trkpt>
      <trkpt lat="59.3270245814" lon="18.0432046665">
        <ele>21.6</ele>
        <time>2011-04-01T13:45:48Z</time>
      </trkpt>
      <trkpt lat="59.3269385831" lon="18.0431843823">
        <ele>21.6</ele>
        <time>2011-04-01T13:45:54Z</time>
      </trkpt>
      <trkpt lat="59.3269359009" lon="18.0431759165">
        <ele>21.6</ele>
        <time>2011-04-01T13:46:21Z</time>
      </trkpt>
      <trkpt lat="59.3270861883" lon="18.0432020681">
        <ele>24</ele>
        <time>2011-04-01T13:47:20Z</time>
      </trkpt>
      <trkpt lat="59.3271459513" lon="18.0432214303">
        <ele>25</ele>
        <time>2011-04-01T13:47:28Z</time>
      </trkpt>
      <trkpt lat="59.3271353901" lon="18.0432224361">
        <ele>25.4</ele>
        <time>2011-04-01T13:47:36Z</time>
      </trkpt>
      <trkpt lat="59.3271291037" lon="18.0432198377">
        <ele>25.4</ele>
        <time>2011-04-01T13:47:37Z</time>
      </trkpt>
      <trkpt lat="59.3271279302" lon="18.0432181613">
        <ele>25.4</ele>
        <time>2011-04-01T13:47:40Z</time>
      </trkpt>
      <trkpt lat="59.3271757909" lon="18.0432300636">
        <ele>25.6</ele>
        <time>2011-04-01T13:47:46Z</time>
      </trkpt>
      <trkpt lat="59.3270989288" lon="18.0431951949">
        <ele>23.6</ele>
        <time>2011-04-01T13:48:41Z</time>
      </trkpt>
      <trkpt lat="59.3271014434" lon="18.0431927642">
        <ele>23.6</ele>
        <time>2011-04-01T13:48:48Z</time>
      </trkpt>
      <trkpt lat="59.3270856854" lon="18.0431844661">
        <ele>23.6</ele>
        <time>2011-04-01T13:48:58Z</time>
      </trkpt>
      <trkpt lat="59.3271423471" lon="18.0431690434">
        <ele>25.6</ele>
        <time>2011-04-01T13:49:48Z</time>
      </trkpt>
      <trkpt lat="59.3272082288" lon="18.0431640142">
        <ele>26.4</ele>
        <time>2011-04-01T13:49:52Z</time>
      </trkpt>
      <trkpt lat="59.3272510603" lon="18.0431524472">
        <ele>26.8</ele>
        <time>2011-04-01T13:49:56Z</time>
      </trkpt>
      <trkpt lat="59.3272682432" lon="18.0431583146">
        <ele>27.2</ele>
        <time>2011-04-01T13:50:00Z</time>
      </trkpt>
      <trkpt lat="59.327205379" lon="18.0431492621">
        <ele>27.4</ele>
        <time>2011-04-01T13:50:05Z</time>
      </trkpt>
      <trkpt lat="59.3271589432" lon="18.0431399582">
        <ele>27.6</ele>
        <time>2011-04-01T13:50:10Z</time>
      </trkpt>
      <trkpt lat="59.3271659002" lon="18.0431444844">
        <ele>27.6</ele>
        <time>2011-04-01T13:50:11Z</time>
      </trkpt>
      <trkpt lat="59.3272232324" lon="18.0431588175">
        <ele>27.6</ele>
        <time>2011-04-01T13:50:16Z</time>
      </trkpt>
      <trkpt lat="59.327260448" lon="18.0431680376">
        <ele>27.8</ele>
        <time>2011-04-01T13:50:21Z</time>
      </trkpt>
      <trkpt lat="59.3272579335" lon="18.0431726476">
        <ele>28.2</ele>
        <time>2011-04-01T13:50:25Z</time>
      </trkpt>
      <trkpt lat="59.3272633817" lon="18.0431620864">
        <ele>28.8</ele>
        <time>2011-04-01T13:50:30Z</time>
      </trkpt>
      <trkpt lat="59.3271526568" lon="18.0431267986">
        <ele>29.8</ele>
        <time>2011-04-01T13:51:02Z</time>
      </trkpt>
      <trkpt lat="59.3271706779" lon="18.0431286426">
        <ele>29.8</ele>
        <time>2011-04-01T13:51:08Z</time>
      </trkpt>
      <trkpt lat="59.3270880324" lon="18.0431473343">
        <ele>29.8</ele>
        <time>2011-04-01T13:51:29Z</time>
      </trkpt>
      <trkpt lat="59.3271151897" lon="18.0431582307">
        <ele>29.2</ele>
        <time>2011-04-01T13:51:41Z</time>
      </trkpt>
      <trkpt lat="59.3271431853" lon="18.0431521119">
        <ele>28.4</ele>
        <time>2011-04-01T13:51:49Z</time>
      </trkpt>
      <trkpt lat="59.3270886191" lon="18.0431564705">
        <ele>28.2</ele>
        <time>2011-04-01T13:51:53Z</time>
      </trkpt>
      <trkpt lat="59.3270609588" lon="18.0431606615">
        <ele>28</ele>
        <time>2011-04-01T13:51:57Z</time>
      </trkpt>
      <trkpt lat="59.3270306163" lon="18.0431689596">
        <ele>28</ele>
        <time>2011-04-01T13:52:01Z</time>
      </trkpt>
      <trkpt lat="59.3270464581" lon="18.0431818677">
        <ele>27.8</ele>
        <time>2011-04-01T13:52:07Z</time>
      </trkpt>
      <trkpt lat="59.3270871104" lon="18.0432069296">
        <ele>26.6</ele>
        <time>2011-04-01T13:52:18Z</time>
      </trkpt>
      <trkpt lat="59.3272741944" lon="18.0431835441">
        <ele>26</ele>
        <time>2011-04-01T13:52:30Z</time>
      </trkpt>
      <trkpt lat="59.3273450214" lon="18.0432117073">
        <ele>25</ele>
        <time>2011-04-01T13:52:35Z</time>
      </trkpt>
      <trkpt lat="59.3273904513" lon="18.043232662">
        <ele>24.4</ele>
        <time>2011-04-01T13:52:42Z</time>
      </trkpt>
      <trkpt lat="59.3274101488" lon="18.0431969551">
        <ele>23.6</ele>
        <time>2011-04-01T13:52:47Z</time>
      </trkpt>
      <trkpt lat="59.3274152617" lon="18.0432083545">
        <ele>22.6</ele>
        <time>2011-04-01T13:52:54Z</time>
      </trkpt>
      <trkpt lat="59.3273419201" lon="18.0432197539">
        <ele>19.8</ele>
        <time>2011-04-01T13:53:08Z</time>
      </trkpt>
      <trkpt lat="59.3272319496" lon="18.0432110367">
        <ele>18.6</ele>
        <time>2011-04-01T13:53:15Z</time>
      </trkpt>
      <trkpt lat="59.3272089832" lon="18.0432430556">
        <ele>17.8</ele>
        <time>2011-04-01T13:53:21Z</time>
      </trkpt>
      <trkpt lat="59.3272254955" lon="18.0432433908">
        <ele>17.4</ele>
        <time>2011-04-01T13:53:22Z</time>
      </trkpt>
      <trkpt lat="59.3273278385" lon="18.0432537844">
        <ele>16.6</ele>
        <time>2011-04-01T13:53:27Z</time>
      </trkpt>
      <trkpt lat="59.3273631263" lon="18.043270632">
        <ele>16</ele>
        <time>2011-04-01T13:53:32Z</time>
      </trkpt>
      <trkpt lat="59.3273846678" lon="18.0432814447">
        <ele>15.4</ele>
        <time>2011-04-01T13:53:47Z</time>
      </trkpt>
      <trkpt lat="59.3273868471" lon="18.0432552093">
        <ele>15.4</ele>
        <time>2011-04-01T13:53:57Z</time>
      </trkpt>
      <trkpt lat="59.327388272" lon="18.0432101147">
        <ele>15.2</ele>
        <time>2011-04-01T13:54:09Z</time>
      </trkpt>
      <trkpt lat="59.3274054549" lon="18.0432143056">
        <ele>15.2</ele>
        <time>2011-04-01T13:54:14Z</time>
      </trkpt>
      <trkpt lat="59.3274180278" lon="18.0431981286">
        <ele>15.2</ele>
        <time>2011-04-01T13:54:18Z</time>
      </trkpt>
      <trkpt lat="59.3273850031" lon="18.0431920936">
        <ele>15.2</ele>
        <time>2011-04-01T13:54:22Z</time>
      </trkpt>
      <trkpt lat="59.3273172773" lon="18.0432056723">
        <ele>15.2</ele>
        <time>2011-04-01T13:54:28Z</time>
      </trkpt>
      <trkpt lat="59.3273321133" lon="18.0432144733">
        <ele>15.2</ele>
        <time>2011-04-01T13:54:31Z</time>
      </trkpt>
      <trkpt lat="59.3274084724" lon="18.0431879865">
        <ele>15.6</ele>
        <time>2011-04-01T13:54:36Z</time>
      </trkpt>
      <trkpt lat="59.3274440117" lon="18.043174324">
        <ele>16.2</ele>
        <time>2011-04-01T13:54:40Z</time>
      </trkpt>
      <trkpt lat="59.3274154294" lon="18.0430907564">
        <ele>16.6</ele>
        <time>2011-04-01T13:54:45Z</time>
      </trkpt>
      <trkpt lat="59.3274106517" lon="18.0430374476">
        <ele>17</ele>
        <time>2011-04-01T13:54:52Z</time>
      </trkpt>
      <trkpt lat="59.3274647988" lon="18.0429976335">
        <ele>17</ele>
        <time>2011-04-01T13:54:57Z</time>
      </trkpt>
      <trkpt lat="59.3274620327" lon="18.043021019">
        <ele>17.2</ele>
        <time>2011-04-01T13:55:02Z</time>
      </trkpt>
      <trkpt lat="59.3274088915" lon="18.0430688797">
        <ele>17.2</ele>
        <time>2011-04-01T13:55:07Z</time>
      </trkpt>
      <trkpt lat="59.3274102326" lon="18.043106263">
        <ele>17.2</ele>
        <time>2011-04-01T13:55:14Z</time>
      </trkpt>
      <trkpt lat="59.3274634577" lon="18.0430163252">
        <ele>17.2</ele>
        <time>2011-04-01T13:55:19Z</time>
      </trkpt>
      <trkpt lat="59.3275748531" lon="18.0428831368">
        <ele>17.2</ele>
        <time>2011-04-01T13:55:25Z</time>
      </trkpt>
      <trkpt lat="59.3278682196" lon="18.0428747549">
        <ele>17.2</ele>
        <time>2011-04-01T13:55:36Z</time>
      </trkpt>
      <trkpt lat="59.3277539743" lon="18.0430359388">
        <ele>17.2</ele>
        <time>2011-04-01T13:55:43Z</time>
      </trkpt>
      <trkpt lat="59.3275083846" lon="18.0431822868">
        <ele>17.2</ele>
        <time>2011-04-01T13:55:48Z</time>
      </trkpt>
      <trkpt lat="59.3274106517" lon="18.043215982">
        <ele>17.8</ele>
        <time>2011-04-01T13:55:53Z</time>
      </trkpt>
      <trkpt lat="59.3273437641" lon="18.0432106176">
        <ele>18.6</ele>
        <time>2011-04-01T13:56:00Z</time>
      </trkpt>
      <trkpt lat="59.3273254916" lon="18.0432245316">
        <ele>20.8</ele>
        <time>2011-04-01T13:56:14Z</time>
      </trkpt>
      <trkpt lat="59.3273355499" lon="18.0432242801">
        <ele>22</ele>
        <time>2011-04-01T13:56:19Z</time>
      </trkpt>
      <trkpt lat="59.327330856" lon="18.043218329">
        <ele>22.4</ele>
        <time>2011-04-01T13:56:22Z</time>
      </trkpt>
      <trkpt lat="59.3272866834" lon="18.0432199215">
        <ele>23</ele>
        <time>2011-04-01T13:56:28Z</time>
      </trkpt>
      <trkpt lat="59.3272746135" lon="18.0431814486">
        <ele>24.6</ele>
        <time>2011-04-01T13:56:37Z</time>
      </trkpt>
      <trkpt lat="59.3273352984" lon="18.0432045826">
        <ele>25</ele>
        <time>2011-04-01T13:56:41Z</time>
      </trkpt>
      <trkpt lat="59.3275030202" lon="18.0431738211">
        <ele>25.4</ele>
        <time>2011-04-01T13:56:48Z</time>
      </trkpt>
      <trkpt lat="59.3275177724" lon="18.0431535369">
        <ele>26</ele>
        <time>2011-04-01T13:56:53Z</time>
      </trkpt>
      <trkpt lat="59.3274565007" lon="18.043164601">
        <ele>26.8</ele>
        <time>2011-04-01T13:56:59Z</time>
      </trkpt>
      <trkpt lat="59.3274467777" lon="18.0431746593">
        <ele>27</ele>
        <time>2011-04-01T13:57:01Z</time>
      </trkpt>
      <trkpt lat="59.3274443469" lon="18.0431905011">
        <ele>27.2</ele>
        <time>2011-04-01T13:57:05Z</time>
      </trkpt>
      <trkpt lat="59.3273995038" lon="18.0431907525">
        <ele>27.6</ele>
        <time>2011-04-01T13:57:11Z</time>
      </trkpt>
      <trkpt lat="59.3273663114" lon="18.0431845499">
        <ele>27.6</ele>
        <time>2011-04-01T13:57:19Z</time>
      </trkpt>
      <trkpt lat="59.3273321133" lon="18.0431686243">
        <ele>27.8</ele>
        <time>2011-04-01T13:57:29Z</time>
      </trkpt>
      <trkpt lat="59.3272617053" lon="18.0431907525">
        <ele>27.8</ele>
        <time>2011-04-01T13:57:36Z</time>
      </trkpt>
      <trkpt lat="59.3271928899" lon="18.0432088574">
        <ele>27.8</ele>
        <time>2011-04-01T13:57:41Z</time>
      </trkpt>
      <trkpt lat="59.3271728572" lon="18.0432264594">
        <ele>27.8</ele>
        <time>2011-04-01T13:57:45Z</time>
      </trkpt>
      <trkpt lat="59.3271531597" lon="18.0432329973">
        <ele>27.8</ele>
        <time>2011-04-01T13:57:52Z</time>
      </trkpt>
      <trkpt lat="59.3271024492" lon="18.0432106176">
        <ele>27.4</ele>
        <time>2011-04-01T13:58:00Z</time>
      </trkpt>
      <trkpt lat="59.3271334623" lon="18.0432099471">
        <ele>26</ele>
        <time>2011-04-01T13:58:14Z</time>
      </trkpt>
      <trkpt lat="59.3271306124" lon="18.0432083545">
        <ele>25.8</ele>
        <time>2011-04-01T13:58:19Z</time>
      </trkpt>
      <trkpt lat="59.3271970809" lon="18.0432122102">
        <ele>25.6</ele>
        <time>2011-04-01T13:58:38Z</time>
      </trkpt>
      <trkpt lat="59.327269752" lon="18.0432234419">
        <ele>26.6</ele>
        <time>2011-04-01T13:58:45Z</time>
      </trkpt>
      <trkpt lat="59.3273148466" lon="18.0432295607">
        <ele>27</ele>
        <time>2011-04-01T13:58:51Z</time>
      </trkpt>
      <trkpt lat="59.3270457876" lon="18.043184969">
        <ele>31.2</ele>
        <time>2011-04-01T14:00:06Z</time>
      </trkpt>
      <trkpt lat="59.327015948" lon="18.0431898305">
        <ele>31.2</ele>
        <time>2011-04-01T14:00:13Z</time>
      </trkpt>
      <trkpt lat="59.3267940791" lon="18.0430979649">
        <ele>29.4</ele>
        <time>2011-04-01T14:01:48Z</time>
      </trkpt>
      <trkpt lat="59.32699558" lon="18.0431110406">
        <ele>29.4</ele>
        <time>2011-04-01T14:01:53Z</time>
      </trkpt>
      <trkpt lat="59.3270894573" lon="18.0431098672">
        <ele>29.4</ele>
        <time>2011-04-01T14:01:57Z</time>
      </trkpt>
      <trkpt lat="59.327111334" lon="18.0431100348">
        <ele>29.4</ele>
        <time>2011-04-01T14:02:04Z</time>
      </trkpt>
      <trkpt lat="59.3271498908" lon="18.043095115">
        <ele>29.4</ele>
        <time>2011-04-01T14:02:10Z</time>
      </trkpt>
      <trkpt lat="59.3271975838" lon="18.0431049219">
        <ele>29.4</ele>
        <time>2011-04-01T14:02:15Z</time>
      </trkpt>
      <trkpt lat="59.3272199635" lon="18.0431543751">
        <ele>29.4</ele>
        <time>2011-04-01T14:02:23Z</time>
      </trkpt>
      <trkpt lat="59.3272326201" lon="18.0431697139">
        <ele>29.4</ele>
        <time>2011-04-01T14:02:26Z</time>
      </trkpt>
      <trkpt lat="59.3272337098" lon="18.0431754136">
        <ele>29.4</ele>
        <time>2011-04-01T14:02:33Z</time>
      </trkpt>
      <trkpt lat="59.3272094861" lon="18.0432005593">
        <ele>29.4</ele>
        <time>2011-04-01T14:02:43Z</time>
      </trkpt>
      <trkpt lat="59.3272209693" lon="18.0432609928">
        <ele>28.4</ele>
        <time>2011-04-01T14:02:54Z</time>
      </trkpt>
      <trkpt lat="59.3271606196" lon="18.0432457378">
        <ele>27.8</ele>
        <time>2011-04-01T14:03:01Z</time>
      </trkpt>
      <trkpt lat="59.3270686702" lon="18.0432135513">
        <ele>27.2</ele>
        <time>2011-04-01T14:03:05Z</time>
      </trkpt>
      <trkpt lat="59.3270032075" lon="18.0432021519">
        <ele>24.6</ele>
        <time>2011-04-01T14:03:26Z</time>
      </trkpt>
      <trkpt lat="59.3270283532" lon="18.0431994697">
        <ele>24.2</ele>
        <time>2011-04-01T14:03:30Z</time>
      </trkpt>
      <trkpt lat="59.3270710171" lon="18.0431979609">
        <ele>23.8</ele>
        <time>2011-04-01T14:03:36Z</time>
      </trkpt>
      <trkpt lat="59.3271365636" lon="18.0432217655">
        <ele>23.4</ele>
        <time>2011-04-01T14:03:45Z</time>
      </trkpt>
      <trkpt lat="59.3272633817" lon="18.0431842984">
        <ele>23.4</ele>
        <time>2011-04-01T14:03:53Z</time>
      </trkpt>
      <trkpt lat="59.3272541616" lon="18.0431790178">
        <ele>23.2</ele>
        <time>2011-04-01T14:03:56Z</time>
      </trkpt>
      <trkpt lat="59.3271895372" lon="18.0431555485">
        <ele>23.2</ele>
        <time>2011-04-01T14:04:00Z</time>
      </trkpt>
      <trkpt lat="59.3273762021" lon="18.0431929318">
        <ele>23.2</ele>
        <time>2011-04-01T14:04:17Z</time>
      </trkpt>
      <trkpt lat="59.3275658007" lon="18.0432488391">
        <ele>23.2</ele>
        <time>2011-04-01T14:04:23Z</time>
      </trkpt>
      <trkpt lat="59.3276425789" lon="18.0432792654">
        <ele>23.2</ele>
        <time>2011-04-01T14:04:29Z</time>
      </trkpt>
      <trkpt lat="59.3276020105" lon="18.0432696262">
        <ele>23.2</ele>
        <time>2011-04-01T14:04:31Z</time>
      </trkpt>
      <trkpt lat="59.3273078058" lon="18.0432263756">
        <ele>23.2</ele>
        <time>2011-04-01T14:04:43Z</time>
      </trkpt>
      <trkpt lat="59.3271068916" lon="18.0431661935">
        <ele>23.6</ele>
        <time>2011-04-01T14:05:53Z</time>
      </trkpt>
      <trkpt lat="59.3271653135" lon="18.0431735696">
        <ele>23.6</ele>
        <time>2011-04-01T14:06:06Z</time>
      </trkpt>
      <trkpt lat="59.3271316182" lon="18.0431540398">
        <ele>23.6</ele>
        <time>2011-04-01T14:06:10Z</time>
      </trkpt>
      <trkpt lat="59.3270781417" lon="18.0431470828">
        <ele>23.6</ele>
        <time>2011-04-01T14:06:17Z</time>
      </trkpt>
      <trkpt lat="59.3270944864" lon="18.0431518605">
        <ele>23.6</ele>
        <time>2011-04-01T14:06:18Z</time>
      </trkpt>
      <trkpt lat="59.3272074744" lon="18.0431615835">
        <ele>23.6</ele>
        <time>2011-04-01T14:06:24Z</time>
      </trkpt>
      <trkpt lat="59.3272038702" lon="18.043151609">
        <ele>23.6</ele>
        <time>2011-04-01T14:06:27Z</time>
      </trkpt>
      <trkpt lat="59.3270791475" lon="18.0431205122">
        <ele>23.6</ele>
        <time>2011-04-01T14:06:33Z</time>
      </trkpt>
      <trkpt lat="59.3271080651" lon="18.0431125494">
        <ele>23.6</ele>
        <time>2011-04-01T14:06:34Z</time>
      </trkpt>
      <trkpt lat="59.3271539141" lon="18.0430686282">
        <ele>23.6</ele>
        <time>2011-04-01T14:06:46Z</time>
      </trkpt>
      <trkpt lat="59.3272197958" lon="18.043240541">
        <ele>23.6</ele>
        <time>2011-04-01T14:06:57Z</time>
      </trkpt>
      <trkpt lat="59.3272613701" lon="18.043348919">
        <ele>23.6</ele>
        <time>2011-04-01T14:07:11Z</time>
      </trkpt>
      <trkpt lat="59.3272632979" lon="18.0433536966">
        <ele>23.6</ele>
        <time>2011-04-01T14:07:16Z</time>
      </trkpt>
      <trkpt lat="59.3272959873" lon="18.0434717138">
        <ele>23.6</ele>
        <time>2011-04-01T14:07:30Z</time>
      </trkpt>
      <trkpt lat="59.3272436842" lon="18.043404491">
        <ele>23.6</ele>
        <time>2011-04-01T14:07:37Z</time>
      </trkpt>
      <trkpt lat="59.3272441033" lon="18.0433977016">
        <ele>23.6</ele>
        <time>2011-04-01T14:07:39Z</time>
      </trkpt>
      <trkpt lat="59.3272078935" lon="18.0433005554">
        <ele>23.6</ele>
        <time>2011-04-01T14:07:47Z</time>
      </trkpt>
      <trkpt lat="59.3272000984" lon="18.0432796845">
        <ele>24.4</ele>
        <time>2011-04-01T14:07:52Z</time>
      </trkpt>
      <trkpt lat="59.3271699235" lon="18.0433013098">
        <ele>25.6</ele>
        <time>2011-04-01T14:08:00Z</time>
      </trkpt>
      <trkpt lat="59.3271689177" lon="18.0433231027">
        <ele>26.4</ele>
        <time>2011-04-01T14:08:04Z</time>
      </trkpt>
      <trkpt lat="59.3271696721" lon="18.0432887369">
        <ele>28.2</ele>
        <time>2011-04-01T14:08:12Z</time>
      </trkpt>
      <trkpt lat="59.3271141839" lon="18.0433048302">
        <ele>32</ele>
        <time>2011-04-01T14:08:29Z</time>
      </trkpt>
      <trkpt lat="59.3271184587" lon="18.0433622462">
        <ele>32.8</ele>
        <time>2011-04-01T14:08:33Z</time>
      </trkpt>
      <trkpt lat="59.3271203865" lon="18.043403066">
        <ele>33.4</ele>
        <time>2011-04-01T14:08:37Z</time>
      </trkpt>
      <trkpt lat="59.327125248" lon="18.0433876433">
        <ele>33.8</ele>
        <time>2011-04-01T14:08:38Z</time>
      </trkpt>
      <trkpt lat="59.3271464542" lon="18.0432480009">
        <ele>34.8</ele>
        <time>2011-04-01T14:08:44Z</time>
      </trkpt>
      <trkpt lat="59.3271508966" lon="18.0432147247">
        <ele>35</ele>
        <time>2011-04-01T14:08:45Z</time>
      </trkpt>
      <trkpt lat="59.327155339" lon="18.0431883218">
        <ele>35.2</ele>
        <time>2011-04-01T14:08:46Z</time>
      </trkpt>
      <trkpt lat="59.3271742821" lon="18.0431501841">
        <ele>36.2</ele>
        <time>2011-04-01T14:08:50Z</time>
      </trkpt>
      <trkpt lat="59.327166906" lon="18.0431428919">
        <ele>36.8</ele>
        <time>2011-04-01T14:08:52Z</time>
      </trkpt>
      <trkpt lat="59.3271459513" lon="18.0431444844">
        <ele>37</ele>
        <time>2011-04-01T14:08:54Z</time>
      </trkpt>
      <trkpt lat="59.3271654811" lon="18.0431792693">
        <ele>37.6</ele>
        <time>2011-04-01T14:08:59Z</time>
      </trkpt>
      <trkpt lat="59.3271885313" lon="18.0431667803">
        <ele>38.8</ele>
        <time>2011-04-01T14:09:04Z</time>
      </trkpt>
      <trkpt lat="59.3271815744" lon="18.0432729789">
        <ele>39.8</ele>
        <time>2011-04-01T14:09:36Z</time>
      </trkpt>
      <trkpt lat="59.3271006052" lon="18.0433060036">
        <ele>36.2</ele>
        <time>2011-04-01T14:09:41Z</time>
      </trkpt>
      <trkpt lat="59.3271146868" lon="18.0432399543">
        <ele>32.8</ele>
        <time>2011-04-01T14:09:47Z</time>
      </trkpt>
      <trkpt lat="59.3271172014" lon="18.0432380264">
        <ele>32.4</ele>
        <time>2011-04-01T14:09:48Z</time>
      </trkpt>
      <trkpt lat="59.3271121722" lon="18.0432406248">
        <ele>31.2</ele>
        <time>2011-04-01T14:09:52Z</time>
      </trkpt>
      <trkpt lat="59.3270871104" lon="18.0432454863">
        <ele>30.8</ele>
        <time>2011-04-01T14:09:54Z</time>
      </trkpt>
      <trkpt lat="59.3270514035" lon="18.0432339193">
        <ele>29.8</ele>
        <time>2011-04-01T14:09:58Z</time>
      </trkpt>
      <trkpt lat="59.3270638925" lon="18.0432221846">
        <ele>28.2</ele>
        <time>2011-04-01T14:10:03Z</time>
      </trkpt>
      <trkpt lat="59.3270253358" lon="18.0431994697">
        <ele>26</ele>
        <time>2011-04-01T14:10:10Z</time>
      </trkpt>
      <trkpt lat="59.3270592824" lon="18.0432267109">
        <ele>25</ele>
        <time>2011-04-01T14:10:17Z</time>
      </trkpt>
      <trkpt lat="59.3270896249" lon="18.0432358471">
        <ele>24.6</ele>
        <time>2011-04-01T14:10:23Z</time>
      </trkpt>
      <trkpt lat="59.3270905469" lon="18.0432144733">
        <ele>24.4</ele>
        <time>2011-04-01T14:10:31Z</time>
      </trkpt>
      <trkpt lat="59.3270569355" lon="18.0433124577">
        <ele>24.2</ele>
        <time>2011-04-01T14:10:37Z</time>
      </trkpt>
      <trkpt lat="59.3270788961" lon="18.0433071771">
        <ele>24.2</ele>
        <time>2011-04-01T14:10:39Z</time>
      </trkpt>
      <trkpt lat="59.327107646" lon="18.043222017">
        <ele>24.2</ele>
        <time>2011-04-01T14:10:43Z</time>
      </trkpt>
      <trkpt lat="59.3271018625" lon="18.0431899143">
        <ele>24.2</ele>
        <time>2011-04-01T14:10:45Z</time>
      </trkpt>
      <trkpt lat="59.3271189616" lon="18.0431457417">
        <ele>24.2</ele>
        <time>2011-04-01T14:10:53Z</time>
      </trkpt>
      <trkpt lat="59.327158105" lon="18.0431470828">
        <ele>23.2</ele>
        <time>2011-04-01T14:11:00Z</time>
      </trkpt>
      <trkpt lat="59.3271535788" lon="18.0431472504">
        <ele>22.6</ele>
        <time>2011-04-01T14:11:06Z</time>
      </trkpt>
      <trkpt lat="59.3271075622" lon="18.0431361025">
        <ele>27.8</ele>
        <time>2011-04-01T14:12:13Z</time>
      </trkpt>
      <trkpt lat="59.3271324564" lon="18.0430594081">
        <ele>28.2</ele>
        <time>2011-04-01T14:12:29Z</time>
      </trkpt>
      <trkpt lat="59.3271337137" lon="18.0430560554">
        <ele>28.2</ele>
        <time>2011-04-01T14:12:34Z</time>
      </trkpt>
      <trkpt lat="59.3271344681" lon="18.0430806982">
        <ele>28.2</ele>
        <time>2011-04-01T14:12:44Z</time>
      </trkpt>
      <trkpt lat="59.327160452" lon="18.0430392916">
        <ele>28.2</ele>
        <time>2011-04-01T14:12:51Z</time>
      </trkpt>
      <trkpt lat="59.3271358092" lon="18.0430152355">
        <ele>28.2</ele>
        <time>2011-04-01T14:12:54Z</time>
      </trkpt>
      <trkpt lat="59.327122482" lon="18.0429939455">
        <ele>28.2</ele>
        <time>2011-04-01T14:12:58Z</time>
      </trkpt>
      <trkpt lat="59.3271436882" lon="18.0429815403">
        <ele>28.2</ele>
        <time>2011-04-01T14:13:04Z</time>
      </trkpt>
      <trkpt lat="59.3271311991" lon="18.0430231983">
        <ele>28.2</ele>
        <time>2011-04-01T14:13:17Z</time>
      </trkpt>
      <trkpt lat="59.3271131781" lon="18.0430142297">
        <ele>28.2</ele>
        <time>2011-04-01T14:13:23Z</time>
      </trkpt>
      <trkpt lat="59.3271273435" lon="18.0430584861">
        <ele>28.2</ele>
        <time>2011-04-01T14:13:30Z</time>
      </trkpt>
      <trkpt lat="59.3271069755" lon="18.0430339272">
        <ele>28.2</ele>
        <time>2011-04-01T14:13:34Z</time>
      </trkpt>
      <trkpt lat="59.3270709333" lon="18.0429565622">
        <ele>27.4</ele>
        <time>2011-04-01T14:13:48Z</time>
      </trkpt>
      <trkpt lat="59.3270257548" lon="18.0428033411">
        <ele>26.6</ele>
        <time>2011-04-01T14:13:54Z</time>
      </trkpt>
      <trkpt lat="59.3270190493" lon="18.0427309215">
        <ele>26</ele>
        <time>2011-04-01T14:13:57Z</time>
      </trkpt>
      <trkpt lat="59.3271087357" lon="18.0425880939">
        <ele>24.8</ele>
        <time>2011-04-01T14:14:04Z</time>
      </trkpt>
      <trkpt lat="59.3271353063" lon="18.0425967273">
        <ele>24.4</ele>
        <time>2011-04-01T14:14:05Z</time>
      </trkpt>
      <trkpt lat="59.3272237353" lon="18.0426368766">
        <ele>23.4</ele>
        <time>2011-04-01T14:14:10Z</time>
      </trkpt>
      <trkpt lat="59.327243349" lon="18.0426527183">
        <ele>23.2</ele>
        <time>2011-04-01T14:14:11Z</time>
      </trkpt>
      <trkpt lat="59.3272944786" lon="18.0426303387">
        <ele>22.8</ele>
        <time>2011-04-01T14:14:16Z</time>
      </trkpt>
      <trkpt lat="59.3273148466" lon="18.0426357031">
        <ele>22.6</ele>
        <time>2011-04-01T14:14:18Z</time>
      </trkpt>
      <trkpt lat="59.3273168582" lon="18.0427071169">
        <ele>22.2</ele>
        <time>2011-04-01T14:14:23Z</time>
      </trkpt>
      <trkpt lat="59.3272606995" lon="18.0428234577">
        <ele>21.2</ele>
        <time>2011-04-01T14:14:31Z</time>
      </trkpt>
      <trkpt lat="59.327258604" lon="18.0428491901">
        <ele>20.6</ele>
        <time>2011-04-01T14:14:37Z</time>
      </trkpt>
      <trkpt lat="59.3272685785" lon="18.0428666244">
        <ele>20.2</ele>
        <time>2011-04-01T14:14:44Z</time>
      </trkpt>
      <trkpt lat="59.327171097" lon="18.042914066">
        <ele>19.8</ele>
        <time>2011-04-01T14:15:17Z</time>
      </trkpt>
      <trkpt lat="59.3271466218" lon="18.0429124734">
        <ele>19.8</ele>
        <time>2011-04-01T14:15:24Z</time>
      </trkpt>
      <trkpt lat="59.3271029521" lon="18.0429406366">
        <ele>19.8</ele>
        <time>2011-04-01T14:16:04Z</time>
      </trkpt>
      <trkpt lat="59.3270926424" lon="18.042962681">
        <ele>19.8</ele>
        <time>2011-04-01T14:16:09Z</time>
      </trkpt>
      <trkpt lat="59.32709281" lon="18.0429797801">
        <ele>19</ele>
        <time>2011-04-01T14:16:15Z</time>
      </trkpt>
      <trkpt lat="59.3270875294" lon="18.0429730746">
        <ele>18.8</ele>
        <time>2011-04-01T14:16:16Z</time>
      </trkpt>
      <trkpt lat="59.3270523255" lon="18.0429530418">
        <ele>18.6</ele>
        <time>2011-04-01T14:16:20Z</time>
      </trkpt>
      <trkpt lat="59.3270283532" lon="18.0429285667">
        <ele>17.2</ele>
        <time>2011-04-01T14:16:27Z</time>
      </trkpt>
      <trkpt lat="59.3270286047" lon="18.0429430674">
        <ele>17</ele>
        <time>2011-04-01T14:16:29Z</time>
      </trkpt>
      <trkpt lat="59.3270850987" lon="18.0430263834">
        <ele>16.4</ele>
        <time>2011-04-01T14:16:34Z</time>
      </trkpt>
      <trkpt lat="59.3270867751" lon="18.0430403812">
        <ele>16.4</ele>
        <time>2011-04-01T14:16:36Z</time>
      </trkpt>
      <trkpt lat="59.3270566002" lon="18.043007608">
        <ele>16</ele>
        <time>2011-04-01T14:16:43Z</time>
      </trkpt>
      <trkpt lat="59.3270330471" lon="18.0430489308">
        <ele>15.8</ele>
        <time>2011-04-01T14:16:48Z</time>
      </trkpt>
      <trkpt lat="59.3270193846" lon="18.0430649402">
        <ele>15.8</ele>
        <time>2011-04-01T14:16:53Z</time>
      </trkpt>
      <trkpt lat="59.3270411775" lon="18.0430449074">
        <ele>15.8</ele>
        <time>2011-04-01T14:16:58Z</time>
      </trkpt>
      <trkpt lat="59.3270560973" lon="18.0430582347">
        <ele>15.8</ele>
        <time>2011-04-01T14:17:01Z</time>
      </trkpt>
      <trkpt lat="59.3270597854" lon="18.0431086937">
        <ele>15.8</ele>
        <time>2011-04-01T14:17:06Z</time>
      </trkpt>
      <trkpt lat="59.3270817459" lon="18.0430924328">
        <ele>15.8</ele>
        <time>2011-04-01T14:17:12Z</time>
      </trkpt>
      <trkpt lat="59.3271072269" lon="18.04310115">
        <ele>15.8</ele>
        <time>2011-04-01T14:17:17Z</time>
      </trkpt>
      <trkpt lat="59.3271269244" lon="18.0431281397">
        <ele>15.8</ele>
        <time>2011-04-01T14:17:23Z</time>
      </trkpt>
      <trkpt lat="59.32712156" lon="18.043206259">
        <ele>15.8</ele>
        <time>2011-04-01T14:18:04Z</time>
      </trkpt>
      <trkpt lat="59.3271239069" lon="18.0432174908">
        <ele>15.8</ele>
        <time>2011-04-01T14:18:09Z</time>
      </trkpt>
      <trkpt lat="59.3271097415" lon="18.0431643495">
        <ele>16.4</ele>
        <time>2011-04-01T14:18:18Z</time>
      </trkpt>
      <trkpt lat="59.3270907146" lon="18.0431207636">
        <ele>17.6</ele>
        <time>2011-04-01T14:18:26Z</time>
      </trkpt>
      <trkpt lat="59.3270631381" lon="18.0430723163">
        <ele>18.6</ele>
        <time>2011-04-01T14:18:31Z</time>
      </trkpt>
      <trkpt lat="59.3270384953" lon="18.0430394592">
        <ele>19</ele>
        <time>2011-04-01T14:18:34Z</time>
      </trkpt>
      <trkpt lat="59.3270367351" lon="18.0429967953">
        <ele>20.2</ele>
        <time>2011-04-01T14:18:41Z</time>
      </trkpt>
      <trkpt lat="59.3270211448" lon="18.0430002319">
        <ele>21.2</ele>
        <time>2011-04-01T14:18:48Z</time>
      </trkpt>
      <trkpt lat="59.3270287723" lon="18.0430665328">
        <ele>21.8</ele>
        <time>2011-04-01T14:18:55Z</time>
      </trkpt>
      <trkpt lat="59.3270704304" lon="18.0431362702">
        <ele>23</ele>
        <time>2011-04-01T14:19:03Z</time>
      </trkpt>
      <trkpt lat="59.3270974201" lon="18.0431767547">
        <ele>23.4</ele>
        <time>2011-04-01T14:19:08Z</time>
      </trkpt>
      <trkpt lat="59.3270791475" lon="18.0433337477">
        <ele>23.6</ele>
        <time>2011-04-01T14:19:13Z</time>
      </trkpt>
      <trkpt lat="59.3270393335" lon="18.0435361706">
        <ele>23.8</ele>
        <time>2011-04-01T14:19:19Z</time>
      </trkpt>
      <trkpt lat="59.3270411775" lon="18.0435690277">
        <ele>23.8</ele>
        <time>2011-04-01T14:19:20Z</time>
      </trkpt>
      <trkpt lat="59.3272103243" lon="18.0429161615">
        <ele>27.8</ele>
        <time>2011-04-01T14:19:57Z</time>
      </trkpt>
      <trkpt lat="59.3271674928" lon="18.0430333404">
        <ele>28</ele>
        <time>2011-04-01T14:20:04Z</time>
      </trkpt>
      <trkpt lat="59.3271645591" lon="18.0430499366">
        <ele>28</ele>
        <time>2011-04-01T14:20:05Z</time>
      </trkpt>
      <trkpt lat="59.3271114179" lon="18.043031664">
        <ele>28</ele>
        <time>2011-04-01T14:20:12Z</time>
      </trkpt>
      <trkpt lat="59.3270819136" lon="18.0430106255">
        <ele>28</ele>
        <time>2011-04-01T14:20:17Z</time>
      </trkpt>
      <trkpt lat="59.3270441112" lon="18.0430438178">
        <ele>28</ele>
        <time>2011-04-01T14:20:22Z</time>
      </trkpt>
      <trkpt lat="59.3269684226" lon="18.0430934386">
        <ele>28</ele>
        <time>2011-04-01T14:20:27Z</time>
      </trkpt>
      <trkpt lat="59.3269565204" lon="18.0430791894">
        <ele>28</ele>
        <time>2011-04-01T14:20:32Z</time>
      </trkpt>
      <trkpt lat="59.326947887" lon="18.043071059">
        <ele>28</ele>
        <time>2011-04-01T14:20:33Z</time>
      </trkpt>
      <trkpt lat="59.3269141918" lon="18.0430679577">
        <ele>28</ele>
        <time>2011-04-01T14:20:40Z</time>
      </trkpt>
      <trkpt lat="59.3269393375" lon="18.0430669518">
        <ele>28.6</ele>
        <time>2011-04-01T14:20:46Z</time>
      </trkpt>
      <trkpt lat="59.3269316261" lon="18.0431280559">
        <ele>29.6</ele>
        <time>2011-04-01T14:20:57Z</time>
      </trkpt>
      <trkpt lat="59.3269605437" lon="18.0431214342">
        <ele>29.8</ele>
        <time>2011-04-01T14:21:03Z</time>
      </trkpt>
      <trkpt lat="59.3269651537" lon="18.0431130523">
        <ele>30</ele>
        <time>2011-04-01T14:21:10Z</time>
      </trkpt>
      <trkpt lat="59.3269520779" lon="18.0431122979">
        <ele>30</ele>
        <time>2011-04-01T14:21:11Z</time>
      </trkpt>
      <trkpt lat="59.3269216516" lon="18.0431446521">
        <ele>30</ele>
        <time>2011-04-01T14:21:15Z</time>
      </trkpt>
      <trkpt lat="59.3269314585" lon="18.0431413831">
        <ele>30</ele>
        <time>2011-04-01T14:21:19Z</time>
      </trkpt>
      <trkpt lat="59.3269192209" lon="18.0430993898">
        <ele>30</ele>
        <time>2011-04-01T14:21:26Z</time>
      </trkpt>
      <trkpt lat="59.326965489" lon="18.0431034131">
        <ele>30.8</ele>
        <time>2011-04-01T14:21:31Z</time>
      </trkpt>
      <trkpt lat="59.3269709372" lon="18.0430705561">
        <ele>31.4</ele>
        <time>2011-04-01T14:21:37Z</time>
      </trkpt>
      <trkpt lat="59.3269479708" lon="18.0430801952">
        <ele>31.6</ele>
        <time>2011-04-01T14:21:41Z</time>
      </trkpt>
      <trkpt lat="59.3269972564" lon="18.0430769263">
        <ele>33.8</ele>
        <time>2011-04-01T14:22:08Z</time>
      </trkpt>
      <trkpt lat="59.3270273474" lon="18.0431453226">
        <ele>34.8</ele>
        <time>2011-04-01T14:22:22Z</time>
      </trkpt>
      <trkpt lat="59.3270601206" lon="18.0431231944">
        <ele>35.4</ele>
        <time>2011-04-01T14:22:28Z</time>
      </trkpt>
      <trkpt lat="59.3270723582" lon="18.0431032455">
        <ele>35.8</ele>
        <time>2011-04-01T14:22:35Z</time>
      </trkpt>
      <trkpt lat="59.3271011081" lon="18.0431537045">
        <ele>36.8</ele>
        <time>2011-04-01T14:22:44Z</time>
      </trkpt>
      <trkpt lat="59.3271163632" lon="18.0432107852">
        <ele>37.8</ele>
        <time>2011-04-01T14:22:58Z</time>
      </trkpt>
      <trkpt lat="59.3271166985" lon="18.0431861425">
        <ele>38</ele>
        <time>2011-04-01T14:23:04Z</time>
      </trkpt>
      <trkpt lat="59.3271607034" lon="18.0431251222">
        <ele>38.2</ele>
        <time>2011-04-01T14:23:10Z</time>
      </trkpt>
      <trkpt lat="59.3271696721" lon="18.0431385333">
        <ele>38.2</ele>
        <time>2011-04-01T14:23:16Z</time>
      </trkpt>
      <trkpt lat="59.3271758747" lon="18.0431426404">
        <ele>39.2</ele>
        <time>2011-04-01T14:23:23Z</time>
      </trkpt>
      <trkpt lat="59.3272014395" lon="18.0430781836">
        <ele>39.4</ele>
        <time>2011-04-01T14:23:27Z</time>
      </trkpt>
      <trkpt lat="59.3272079774" lon="18.0430528703">
        <ele>39.8</ele>
        <time>2011-04-01T14:23:33Z</time>
      </trkpt>
      <trkpt lat="59.3271681633" lon="18.0432324106">
        <ele>40.2</ele>
        <time>2011-04-01T14:23:57Z</time>
      </trkpt>
      <trkpt lat="59.327129858" lon="18.0433355917">
        <ele>40.2</ele>
        <time>2011-04-01T14:24:01Z</time>
      </trkpt>
      <trkpt lat="59.3271266729" lon="18.0433162296">
        <ele>39.8</ele>
        <time>2011-04-01T14:24:09Z</time>
      </trkpt>
      <trkpt lat="59.3271216438" lon="18.0433075124">
        <ele>39.6</ele>
        <time>2011-04-01T14:24:10Z</time>
      </trkpt>
      <trkpt lat="59.3271146868" lon="18.0432658543">
        <ele>39</ele>
        <time>2011-04-01T14:24:17Z</time>
      </trkpt>
      <trkpt lat="59.3271250804" lon="18.0432136351">
        <ele>38.6</ele>
        <time>2011-04-01T14:24:22Z</time>
      </trkpt>
      <trkpt lat="59.3271362283" lon="18.0432638427">
        <ele>38.4</ele>
        <time>2011-04-01T14:24:28Z</time>
      </trkpt>
      <trkpt lat="59.327138659" lon="18.0431251222">
        <ele>42.4</ele>
        <time>2011-04-01T14:25:01Z</time>
      </trkpt>
      <trkpt lat="59.3270954084" lon="18.0431188358">
        <ele>44.6</ele>
        <time>2011-04-01T14:25:37Z</time>
      </trkpt>
      <trkpt lat="59.326990467" lon="18.043138198">
        <ele>44.6</ele>
        <time>2011-04-01T14:27:06Z</time>
      </trkpt>
      <trkpt lat="59.3269967535" lon="18.0431079393">
        <ele>44.8</ele>
        <time>2011-04-01T14:27:12Z</time>
      </trkpt>
      <trkpt lat="59.327053918" lon="18.0429684645">
        <ele>46.8</ele>
        <time>2011-04-01T14:28:05Z</time>
      </trkpt>
      <trkpt lat="59.3270143555" lon="18.0430765072">
        <ele>46.8</ele>
        <time>2011-04-01T14:28:24Z</time>
      </trkpt>
      <trkpt lat="59.3270191331" lon="18.0430615036">
        <ele>46.8</ele>
        <time>2011-04-01T14:28:25Z</time>
      </trkpt>
      <trkpt lat="59.327027515" lon="18.0430366094">
        <ele>46.8</ele>
        <time>2011-04-01T14:28:32Z</time>
      </trkpt>
      <trkpt lat="59.3270538342" lon="18.0429402175">
        <ele>46.8</ele>
        <time>2011-04-01T14:28:44Z</time>
      </trkpt>
      <trkpt lat="59.3270984259" lon="18.0427448354">
        <ele>50.2</ele>
        <time>2011-04-01T14:29:22Z</time>
      </trkpt>
      <trkpt lat="59.3270456199" lon="18.0429027504">
        <ele>52.2</ele>
        <time>2011-04-01T14:29:36Z</time>
      </trkpt>
      <trkpt lat="59.3270363999" lon="18.0429291534">
        <ele>52.2</ele>
        <time>2011-04-01T14:29:37Z</time>
      </trkpt>
      <trkpt lat="59.3269737032" lon="18.0431482563">
        <ele>54.8</ele>
        <time>2011-04-01T14:29:59Z</time>
      </trkpt>
      <trkpt lat="59.3269601246" lon="18.0432112043">
        <ele>55</ele>
        <time>2011-04-01T14:30:12Z</time>
      </trkpt>
      <trkpt lat="59.326984013" lon="18.0431797722">
        <ele>55</ele>
        <time>2011-04-01T14:30:59Z</time>
      </trkpt>
      <trkpt lat="59.3269933169" lon="18.0431553809">
        <ele>55</ele>
        <time>2011-04-01T14:31:06Z</time>
      </trkpt>
      <trkpt lat="59.3271108311" lon="18.043121518">
        <ele>48.8</ele>
        <time>2011-04-01T14:32:38Z</time>
      </trkpt>
      <trkpt lat="59.3271099091" lon="18.0431046704">
        <ele>49.6</ele>
        <time>2011-04-01T14:32:42Z</time>
      </trkpt>
      <trkpt lat="59.3270896249" lon="18.0430812849">
        <ele>52</ele>
        <time>2011-04-01T14:32:55Z</time>
      </trkpt>
      <trkpt lat="59.3270555106" lon="18.0432232743">
        <ele>54.4</ele>
        <time>2011-04-01T14:33:12Z</time>
      </trkpt>
      <trkpt lat="59.3270801534" lon="18.043129397">
        <ele>60.6</ele>
        <time>2011-04-01T14:33:46Z</time>
      </trkpt>
      <trkpt lat="59.3270726935" lon="18.0431611644">
        <ele>62</ele>
        <time>2011-04-01T14:33:52Z</time>
      </trkpt>
      <trkpt lat="59.3271105797" lon="18.0432065105">
        <ele>63</ele>
        <time>2011-04-01T14:34:00Z</time>
      </trkpt>
      <trkpt lat="59.3271088195" lon="18.0431698816">
        <ele>63.8</ele>
        <time>2011-04-01T14:34:06Z</time>
      </trkpt>
      <trkpt lat="59.3270956599" lon="18.043207181">
        <ele>65.4</ele>
        <time>2011-04-01T14:34:20Z</time>
      </trkpt>
      <trkpt lat="59.3270990127" lon="18.0432000564">
        <ele>65.6</ele>
        <time>2011-04-01T14:34:24Z</time>
      </trkpt>
      <trkpt lat="59.3271097415" lon="18.0431781797">
        <ele>65.6</ele>
        <time>2011-04-01T14:34:31Z</time>
      </trkpt>
      <trkpt lat="59.3271000185" lon="18.0431376951">
        <ele>65</ele>
        <time>2011-04-01T14:34:39Z</time>
      </trkpt>
      <trkpt lat="59.3271258347" lon="18.043083548">
        <ele>64.4</ele>
        <time>2011-04-01T14:34:45Z</time>
      </trkpt>
      <trkpt lat="59.3271272597" lon="18.0430281436">
        <ele>64.2</ele>
        <time>2011-04-01T14:34:50Z</time>
      </trkpt>
      <trkpt lat="59.3271143515" lon="18.0430634314">
        <ele>64</ele>
        <time>2011-04-01T14:34:52Z</time>
      </trkpt>
      <trkpt lat="59.3270849311" lon="18.04310576">
        <ele>64</ele>
        <time>2011-04-01T14:34:55Z</time>
      </trkpt>
      <trkpt lat="59.3270596177" lon="18.0431654392">
        <ele>63.8</ele>
        <time>2011-04-01T14:35:00Z</time>
      </trkpt>
      <trkpt lat="59.3270922233" lon="18.0431433948">
        <ele>63.8</ele>
        <time>2011-04-01T14:35:09Z</time>
      </trkpt>
      <trkpt lat="59.3271007729" lon="18.043094193">
        <ele>63.8</ele>
        <time>2011-04-01T14:35:13Z</time>
      </trkpt>
      <trkpt lat="59.3271033712" lon="18.0429680454">
        <ele>63.8</ele>
        <time>2011-04-01T14:35:20Z</time>
      </trkpt>
      <trkpt lat="59.3270999347" lon="18.0429619266">
        <ele>63.8</ele>
        <time>2011-04-01T14:35:22Z</time>
      </trkpt>
      <trkpt lat="59.3269942389" lon="18.0430201808">
        <ele>63.8</ele>
        <time>2011-04-01T14:35:28Z</time>
      </trkpt>
      <trkpt lat="59.3269790677" lon="18.0429932749">
        <ele>63.8</ele>
        <time>2011-04-01T14:35:32Z</time>
      </trkpt>
      <trkpt lat="59.3269897127" lon="18.0430186721">
        <ele>63.8</ele>
        <time>2011-04-01T14:35:35Z</time>
      </trkpt>
      <trkpt lat="59.3269508207" lon="18.0430454104">
        <ele>63.8</ele>
        <time>2011-04-01T14:35:37Z</time>
      </trkpt>
      <trkpt lat="59.3269667463" lon="18.0429910118">
        <ele>63.8</ele>
        <time>2011-04-01T14:35:43Z</time>
      </trkpt>
      <trkpt lat="59.3269980108" lon="18.0429660338">
        <ele>63</ele>
        <time>2011-04-01T14:35:47Z</time>
      </trkpt>
      <trkpt lat="59.3270169539" lon="18.0429539638">
        <ele>62.8</ele>
        <time>2011-04-01T14:35:48Z</time>
      </trkpt>
      <trkpt lat="59.3271259186" lon="18.0429894193">
        <ele>62</ele>
        <time>2011-04-01T14:35:55Z</time>
      </trkpt>
      <trkpt lat="59.3271509804" lon="18.0429936102">
        <ele>61.8</ele>
        <time>2011-04-01T14:35:56Z</time>
      </trkpt>
      <trkpt lat="59.3272358891" lon="18.0430078595">
        <ele>60.8</ele>
        <time>2011-04-01T14:36:01Z</time>
      </trkpt>
      <trkpt lat="59.3272845041" lon="18.0428745034">
        <ele>55.4</ele>
        <time>2011-04-01T14:36:47Z</time>
      </trkpt>
      <trkpt lat="59.3272758707" lon="18.0429032533">
        <ele>55.4</ele>
        <time>2011-04-01T14:36:49Z</time>
      </trkpt>
      <trkpt lat="59.3272436842" lon="18.0429508625">
        <ele>55.4</ele>
        <time>2011-04-01T14:36:51Z</time>
      </trkpt>
      <trkpt lat="59.3272174489" lon="18.0429894193">
        <ele>55.4</ele>
        <time>2011-04-01T14:36:53Z</time>
      </trkpt>
      <trkpt lat="59.3271511481" lon="18.0430133077">
        <ele>55.4</ele>
        <time>2011-04-01T14:36:57Z</time>
      </trkpt>
      <trkpt lat="59.3271480468" lon="18.0429255492">
        <ele>55.4</ele>
        <time>2011-04-01T14:37:03Z</time>
      </trkpt>
      <trkpt lat="59.3271555067" lon="18.0428361143">
        <ele>55.4</ele>
        <time>2011-04-01T14:37:17Z</time>
      </trkpt>
      <trkpt lat="59.3271490526" lon="18.0428522076">
        <ele>55.4</ele>
        <time>2011-04-01T14:37:22Z</time>
      </trkpt>
      <trkpt lat="59.3271190454" lon="18.0429555564">
        <ele>57.2</ele>
        <time>2011-04-01T14:37:43Z</time>
      </trkpt>
      <trkpt lat="59.3270820812" lon="18.0430749147">
        <ele>57.2</ele>
        <time>2011-04-01T14:37:53Z</time>
      </trkpt>
      <trkpt lat="59.3270955761" lon="18.0430568936">
        <ele>57.4</ele>
        <time>2011-04-01T14:38:07Z</time>
      </trkpt>
      <trkpt lat="59.3271028683" lon="18.0430412194">
        <ele>57.4</ele>
        <time>2011-04-01T14:38:11Z</time>
      </trkpt>
      <trkpt lat="59.3271330432" lon="18.0429653632">
        <ele>57.4</ele>
        <time>2011-04-01T14:38:16Z</time>
      </trkpt>
      <trkpt lat="59.3270462905" lon="18.0429783552">
        <ele>81.2</ele>
        <time>2011-04-01T14:39:33Z</time>
      </trkpt>
      <trkpt lat="59.3270182111" lon="18.0430073565">
        <ele>87</ele>
        <time>2011-04-01T14:39:57Z</time>
      </trkpt>
      <trkpt lat="59.3269716916" lon="18.0430295686">
        <ele>87.6</ele>
        <time>2011-04-01T14:40:01Z</time>
      </trkpt>
      <trkpt lat="59.3273295987" lon="18.0430185045">
        <ele>90</ele>
        <time>2011-04-01T14:40:55Z</time>
      </trkpt>
      <trkpt lat="59.3273492124" lon="18.0430161575">
        <ele>89.6</ele>
        <time>2011-04-01T14:41:02Z</time>
      </trkpt>
      <trkpt lat="59.3273645512" lon="18.0430665328">
        <ele>87.6</ele>
        <time>2011-04-01T14:41:14Z</time>
      </trkpt>
      <trkpt lat="59.3274724263" lon="18.0432505993">
        <ele>86.6</ele>
        <time>2011-04-01T14:41:21Z</time>
      </trkpt>
      <trkpt lat="59.3275526411" lon="18.0433966958">
        <ele>85.2</ele>
        <time>2011-04-01T14:41:27Z</time>
      </trkpt>
      <trkpt lat="59.3275272439" lon="18.043348919">
        <ele>84.4</ele>
        <time>2011-04-01T14:41:32Z</time>
      </trkpt>
      <trkpt lat="59.3273196243" lon="18.0431061791">
        <ele>80</ele>
        <time>2011-04-01T14:41:48Z</time>
      </trkpt>
      <trkpt lat="59.3272329554" lon="18.0431069335">
        <ele>77.6</ele>
        <time>2011-04-01T14:41:55Z</time>
      </trkpt>
      <trkpt lat="59.3271737792" lon="18.043106263">
        <ele>75</ele>
        <time>2011-04-01T14:42:02Z</time>
      </trkpt>
      <trkpt lat="59.3271512319" lon="18.0431091966">
        <ele>73</ele>
        <time>2011-04-01T14:42:07Z</time>
      </trkpt>
      <trkpt lat="59.3271523215" lon="18.0431000603">
        <ele>71</ele>
        <time>2011-04-01T14:42:12Z</time>
      </trkpt>
      <trkpt lat="59.327131283" lon="18.0430591567">
        <ele>54</ele>
        <time>2011-04-01T14:44:24Z</time>
      </trkpt>
      <trkpt lat="59.3270871942" lon="18.0431552133">
        <ele>54</ele>
        <time>2011-04-01T14:44:35Z</time>
      </trkpt>
      <trkpt lat="59.3270545048" lon="18.0432041635">
        <ele>54</ele>
        <time>2011-04-01T14:44:41Z</time>
      </trkpt>
      <trkpt lat="59.3270261739" lon="18.0432412954">
        <ele>54</ele>
        <time>2011-04-01T14:44:47Z</time>
      </trkpt>
      <trkpt lat="59.327021061" lon="18.0432383617">
        <ele>54</ele>
        <time>2011-04-01T14:44:51Z</time>
      </trkpt>
      <trkpt lat="59.3270480507" lon="18.0431714741">
        <ele>54</ele>
        <time>2011-04-01T14:44:56Z</time>
      </trkpt>
      <trkpt lat="59.3270448656" lon="18.0431745754">
        <ele>54</ele>
        <time>2011-04-01T14:45:06Z</time>
      </trkpt>
      <trkpt lat="59.3270495594" lon="18.0431643495">
        <ele>52.4</ele>
        <time>2011-04-01T14:45:35Z</time>
      </trkpt>
      <trkpt lat="59.3270462067" lon="18.0431609129">
        <ele>52.2</ele>
        <time>2011-04-01T14:45:41Z</time>
      </trkpt>
      <trkpt lat="59.3270699275" lon="18.0431250384">
        <ele>52.2</ele>
        <time>2011-04-01T14:46:03Z</time>
      </trkpt>
      <trkpt lat="59.3270746213" lon="18.0431447359">
        <ele>52.8</ele>
        <time>2011-04-01T14:46:07Z</time>
      </trkpt>
      <trkpt lat="59.3270817459" lon="18.0431308219">
        <ele>53.6</ele>
        <time>2011-04-01T14:46:12Z</time>
      </trkpt>
      <trkpt lat="59.3270585281" lon="18.0431397067">
        <ele>55</ele>
        <time>2011-04-01T14:46:20Z</time>
      </trkpt>
      <trkpt lat="59.3269903832" lon="18.0431575602">
        <ele>55.8</ele>
        <time>2011-04-01T14:46:25Z</time>
      </trkpt>
      <trkpt lat="59.3269859408" lon="18.0431507708">
        <ele>56.8</ele>
        <time>2011-04-01T14:46:30Z</time>
      </trkpt>
      <trkpt lat="59.3270167862" lon="18.0431220209">
        <ele>57.6</ele>
        <time>2011-04-01T14:46:36Z</time>
      </trkpt>
      <trkpt lat="59.3270364837" lon="18.0430949474">
        <ele>58.6</ele>
        <time>2011-04-01T14:46:40Z</time>
      </trkpt>
      <trkpt lat="59.3270765492" lon="18.0430787703">
        <ele>61.6</ele>
        <time>2011-04-01T14:47:02Z</time>
      </trkpt>
      <trkpt lat="59.3270623837" lon="18.043080782">
        <ele>62</ele>
        <time>2011-04-01T14:47:11Z</time>
      </trkpt>
      <trkpt lat="59.3270720229" lon="18.0430745794">
        <ele>62.2</ele>
        <time>2011-04-01T14:47:17Z</time>
      </trkpt>
      <trkpt lat="59.3270612941" lon="18.0430879904">
        <ele>62.2</ele>
        <time>2011-04-01T14:47:21Z</time>
      </trkpt>
      <trkpt lat="59.3270463743" lon="18.0431347614">
        <ele>62.2</ele>
        <time>2011-04-01T14:47:28Z</time>
      </trkpt>
      <trkpt lat="59.3270193008" lon="18.0431205122">
        <ele>62.2</ele>
        <time>2011-04-01T14:47:36Z</time>
      </trkpt>
      <trkpt lat="59.3270966657" lon="18.0430200132">
        <ele>62.2</ele>
        <time>2011-04-01T14:47:54Z</time>
      </trkpt>
      <trkpt lat="59.3271490526" lon="18.0429831328">
        <ele>63</ele>
        <time>2011-04-01T14:48:00Z</time>
      </trkpt>
      <trkpt lat="59.3272306085" lon="18.0429611723">
        <ele>64.2</ele>
        <time>2011-04-01T14:48:22Z</time>
      </trkpt>
      <trkpt lat="59.3273138407" lon="18.0429187599">
        <ele>64.2</ele>
        <time>2011-04-01T14:48:27Z</time>
      </trkpt>
      <trkpt lat="59.327372514" lon="18.0428972184">
        <ele>64.2</ele>
        <time>2011-04-01T14:48:32Z</time>
      </trkpt>
      <trkpt lat="59.3274457719" lon="18.0428929436">
        <ele>64.2</ele>
        <time>2011-04-01T14:48:37Z</time>
      </trkpt>
      <trkpt lat="59.3274708337" lon="18.0428899261">
        <ele>63.4</ele>
        <time>2011-04-01T14:48:43Z</time>
      </trkpt>
      <trkpt lat="59.3273949775" lon="18.0429844739">
        <ele>61.6</ele>
        <time>2011-04-01T14:49:09Z</time>
      </trkpt>
      <trkpt lat="59.3272377331" lon="18.0430744956">
        <ele>45.6</ele>
        <time>2011-04-01T14:50:57Z</time>
      </trkpt>
      <trkpt lat="59.3271935605" lon="18.0430149841">
        <ele>49.6</ele>
        <time>2011-04-01T14:53:40Z</time>
      </trkpt>
      <trkpt lat="59.3272471208" lon="18.0430281436">
        <ele>49.6</ele>
        <time>2011-04-01T14:53:55Z</time>
      </trkpt>
      <trkpt lat="59.3272798941" lon="18.0430071051">
        <ele>49.6</ele>
        <time>2011-04-01T14:53:59Z</time>
      </trkpt>
      <trkpt lat="59.3273148466" lon="18.0429938617">
        <ele>49.6</ele>
        <time>2011-04-01T14:54:06Z</time>
      </trkpt>
      <trkpt lat="59.3274295948" lon="18.0429894193">
        <ele>49.6</ele>
        <time>2011-04-01T14:54:28Z</time>
      </trkpt>
      <trkpt lat="59.3274295948" lon="18.0429957057">
        <ele>49.6</ele>
        <time>2011-04-01T14:54:35Z</time>
      </trkpt>
      <trkpt lat="59.3273371424" lon="18.0431105377">
        <ele>51.6</ele>
        <time>2011-04-01T14:55:17Z</time>
      </trkpt>
      <trkpt lat="59.3274194527" lon="18.0430275569">
        <ele>51.6</ele>
        <time>2011-04-01T14:55:22Z</time>
      </trkpt>
      <trkpt lat="59.3274668104" lon="18.0429943646">
        <ele>51.6</ele>
        <time>2011-04-01T14:55:24Z</time>
      </trkpt>
      <trkpt lat="59.3275055348" lon="18.0429123058">
        <ele>51.6</ele>
        <time>2011-04-01T14:55:30Z</time>
      </trkpt>
      <trkpt lat="59.3276006694" lon="18.0428538839">
        <ele>51.6</ele>
        <time>2011-04-01T14:55:36Z</time>
      </trkpt>
      <trkpt lat="59.3272842526" lon="18.0431324983">
        <ele>50.4</ele>
        <time>2011-04-01T14:55:57Z</time>
      </trkpt>
      <trkpt lat="59.3272337936" lon="18.0431536207">
        <ele>50.4</ele>
        <time>2011-04-01T14:55:58Z</time>
      </trkpt>
      <trkpt lat="59.3270428539" lon="18.0432816961">
        <ele>49.8</ele>
        <time>2011-04-01T14:56:11Z</time>
      </trkpt>
      <trkpt lat="59.3270633058" lon="18.04321045">
        <ele>48.6</ele>
        <time>2011-04-01T14:56:21Z</time>
      </trkpt>
      <trkpt lat="59.3270838414" lon="18.043182203">
        <ele>48.2</ele>
        <time>2011-04-01T14:56:26Z</time>
      </trkpt>
      <trkpt lat="59.3269809117" lon="18.0432754935">
        <ele>47.4</ele>
        <time>2011-04-01T14:56:32Z</time>
      </trkpt>
      <trkpt lat="59.3269626391" lon="18.0432957777">
        <ele>46.6</ele>
        <time>2011-04-01T14:56:38Z</time>
      </trkpt>
      <trkpt lat="59.3269796544" lon="18.0432661896">
        <ele>46.2</ele>
        <time>2011-04-01T14:56:42Z</time>
      </trkpt>
      <trkpt lat="59.3270382439" lon="18.0432146409">
        <ele>45.8</ele>
        <time>2011-04-01T14:56:47Z</time>
      </trkpt>
      <trkpt lat="59.3270496433" lon="18.0432243639">
        <ele>45.4</ele>
        <time>2011-04-01T14:56:51Z</time>
      </trkpt>
      <trkpt lat="59.3270106674" lon="18.0432989628">
        <ele>44.6</ele>
        <time>2011-04-01T14:56:56Z</time>
      </trkpt>
      <trkpt lat="59.3270612103" lon="18.0432452349">
        <ele>44</ele>
        <time>2011-04-01T14:57:01Z</time>
      </trkpt>
      <trkpt lat="59.3270777226" lon="18.0432185804">
        <ele>44</ele>
        <time>2011-04-01T14:57:02Z</time>
      </trkpt>
      <trkpt lat="59.3271556743" lon="18.043081704">
        <ele>43.6</ele>
        <time>2011-04-01T14:57:08Z</time>
      </trkpt>
      <trkpt lat="59.3271667384" lon="18.0430531217">
        <ele>42.8</ele>
        <time>2011-04-01T14:57:15Z</time>
      </trkpt>
      <trkpt lat="59.3271840051" lon="18.04302521">
        <ele>39.2</ele>
        <time>2011-04-01T14:57:54Z</time>
      </trkpt>
      <trkpt lat="59.3272103243" lon="18.0429870723">
        <ele>39.2</ele>
        <time>2011-04-01T14:57:59Z</time>
      </trkpt>
      <trkpt lat="59.327239158" lon="18.0429445761">
        <ele>39.2</ele>
        <time>2011-04-01T14:58:05Z</time>
      </trkpt>
      <trkpt lat="59.327259526" lon="18.0429243757">
        <ele>39.2</ele>
        <time>2011-04-01T14:58:17Z</time>
      </trkpt>
      <trkpt lat="59.3273513917" lon="18.0427747588">
        <ele>39.2</ele>
        <time>2011-04-01T14:58:22Z</time>
      </trkpt>
      <trkpt lat="59.3271788083" lon="18.0431278044">
        <ele>38.4</ele>
        <time>2011-04-01T15:01:32Z</time>
      </trkpt>
      <trkpt lat="59.3271015272" lon="18.043191004">
        <ele>47.2</ele>
        <time>2011-04-01T15:02:22Z</time>
      </trkpt>
      <trkpt lat="59.3269345598" lon="18.043272476">
        <ele>46.4</ele>
        <time>2011-04-01T15:04:48Z</time>
      </trkpt>
      <trkpt lat="59.3269424388" lon="18.0432666087">
        <ele>46.4</ele>
        <time>2011-04-01T15:05:11Z</time>
      </trkpt>
      <trkpt lat="59.3269098332" lon="18.0432955263">
        <ele>46.4</ele>
        <time>2011-04-01T15:05:21Z</time>
      </trkpt>
      <trkpt lat="59.3268189734" lon="18.0433574685">
        <ele>46.4</ele>
        <time>2011-04-01T15:05:27Z</time>
      </trkpt>
      <trkpt lat="59.3271114179" lon="18.0431841308">
        <ele>46.4</ele>
        <time>2011-04-01T15:05:57Z</time>
      </trkpt>
      <trkpt lat="59.3271439396" lon="18.0431625055">
        <ele>47.2</ele>
        <time>2011-04-01T15:06:03Z</time>
      </trkpt>
      <trkpt lat="59.3271263376" lon="18.0431739887">
        <ele>47.6</ele>
        <time>2011-04-01T15:06:07Z</time>
      </trkpt>
      <trkpt lat="59.3271461189" lon="18.0431560514">
        <ele>48</ele>
        <time>2011-04-01T15:06:12Z</time>
      </trkpt>
      <trkpt lat="59.3271578536" lon="18.0431414669">
        <ele>48.2</ele>
        <time>2011-04-01T15:06:18Z</time>
      </trkpt>
      <trkpt lat="59.327245193" lon="18.0431902496">
        <ele>36.4</ele>
        <time>2011-04-01T15:11:24Z</time>
      </trkpt>
      <trkpt lat="59.3272834145" lon="18.0432119587">
        <ele>34.2</ele>
        <time>2011-04-01T15:11:34Z</time>
      </trkpt>
      <trkpt lat="59.327122482" lon="18.0432148086">
        <ele>30.4</ele>
        <time>2011-04-01T15:13:36Z</time>
      </trkpt>
      <trkpt lat="59.3271560934" lon="18.0431946082">
        <ele>29.8</ele>
        <time>2011-04-01T15:13:42Z</time>
      </trkpt>
      <trkpt lat="59.3271355577" lon="18.0432144733">
        <ele>29.6</ele>
        <time>2011-04-01T15:13:49Z</time>
      </trkpt>
      <trkpt lat="59.3271117531" lon="18.0431872321">
        <ele>29.4</ele>
        <time>2011-04-01T15:14:17Z</time>
      </trkpt>
      <trkpt lat="59.3271151897" lon="18.0431792693">
        <ele>29.4</ele>
        <time>2011-04-01T15:14:23Z</time>
      </trkpt>
      <trkpt lat="59.3271615416" lon="18.0431260442">
        <ele>29.4</ele>
        <time>2011-04-01T15:14:45Z</time>
      </trkpt>
      <trkpt lat="59.3271647267" lon="18.0431219371">
        <ele>29.4</ele>
        <time>2011-04-01T15:14:49Z</time>
      </trkpt>
      <trkpt lat="59.3271529083" lon="18.043132163">
        <ele>29.4</ele>
        <time>2011-04-01T15:14:50Z</time>
      </trkpt>
      <trkpt lat="59.3271068916" lon="18.0431694625">
        <ele>29.4</ele>
        <time>2011-04-01T15:14:56Z</time>
      </trkpt>
      <trkpt lat="59.3271156088" lon="18.043162757">
        <ele>29.4</ele>
        <time>2011-04-01T15:14:58Z</time>
      </trkpt>
      <trkpt lat="59.3271186263" lon="18.0431602424">
        <ele>29.4</ele>
        <time>2011-04-01T15:15:04Z</time>
      </trkpt>
      <trkpt lat="59.3271503937" lon="18.0431682052">
        <ele>29.4</ele>
        <time>2011-04-01T15:16:16Z</time>
      </trkpt>
      <trkpt lat="59.3271274273" lon="18.0431809457">
        <ele>29.4</ele>
        <time>2011-04-01T15:16:21Z</time>
      </trkpt>
      <trkpt lat="59.3271468733" lon="18.0431738211">
        <ele>29.4</ele>
        <time>2011-04-01T15:16:22Z</time>
      </trkpt>
      <trkpt lat="59.3271678281" lon="18.0431563029">
        <ele>29.4</ele>
        <time>2011-04-01T15:16:27Z</time>
      </trkpt>
      <trkpt lat="59.3271709294" lon="18.0431179976">
        <ele>29.4</ele>
        <time>2011-04-01T15:16:31Z</time>
      </trkpt>
      <trkpt lat="59.3271219791" lon="18.0431039998">
        <ele>29.4</ele>
        <time>2011-04-01T15:16:36Z</time>
      </trkpt>
      <trkpt lat="59.3271647267" lon="18.0430866493">
        <ele>29.4</ele>
        <time>2011-04-01T15:17:01Z</time>
      </trkpt>
      <trkpt lat="59.3271679119" lon="18.0431179976">
        <ele>29.4</ele>
        <time>2011-04-01T15:17:06Z</time>
      </trkpt>
      <trkpt lat="59.3272023615" lon="18.0431568896">
        <ele>29.4</ele>
        <time>2011-04-01T15:17:13Z</time>
      </trkpt>
      <trkpt lat="59.3271847595" lon="18.0431694625">
        <ele>29.4</ele>
        <time>2011-04-01T15:17:33Z</time>
      </trkpt>
      <trkpt lat="59.327134971" lon="18.0431436462">
        <ele>29.4</ele>
        <time>2011-04-01T15:17:41Z</time>
      </trkpt>
      <trkpt lat="59.3271018625" lon="18.0431392876">
        <ele>29.4</ele>
        <time>2011-04-01T15:18:05Z</time>
      </trkpt>
      <trkpt lat="59.3270996832" lon="18.0431341747">
        <ele>29.4</ele>
        <time>2011-04-01T15:19:09Z</time>
      </trkpt>
      <trkpt lat="59.3271174528" lon="18.043099306">
        <ele>29.4</ele>
        <time>2011-04-01T15:19:19Z</time>
      </trkpt>
      <trkpt lat="59.3271444425" lon="18.0431404611">
        <ele>29.4</ele>
        <time>2011-04-01T15:19:25Z</time>
      </trkpt>
      <trkpt lat="59.3272054628" lon="18.043149765">
        <ele>29.4</ele>
        <time>2011-04-01T15:19:38Z</time>
      </trkpt>
      <trkpt lat="59.3272088994" lon="18.0431044189">
        <ele>29.4</ele>
        <time>2011-04-01T15:19:44Z</time>
      </trkpt>
      <trkpt lat="59.3272158563" lon="18.0430942768">
        <ele>29.4</ele>
        <time>2011-04-01T15:19:46Z</time>
      </trkpt>
      <trkpt lat="59.3272964064" lon="18.0432026548">
        <ele>29.4</ele>
        <time>2011-04-01T15:19:51Z</time>
      </trkpt>
      <trkpt lat="59.3271637209" lon="18.0432376911">
        <ele>28.8</ele>
        <time>2011-04-01T15:20:59Z</time>
      </trkpt>
      <trkpt lat="59.3271486335" lon="18.0432595679">
        <ele>28.8</ele>
        <time>2011-04-01T15:21:01Z</time>
      </trkpt>
      <trkpt lat="59.3271291875" lon="18.04325303">
        <ele>28.8</ele>
        <time>2011-04-01T15:21:06Z</time>
      </trkpt>
      <trkpt lat="59.3271285169" lon="18.0432750744">
        <ele>28.8</ele>
        <time>2011-04-01T15:21:07Z</time>
      </trkpt>
      <trkpt lat="59.3271249965" lon="18.0432837078">
        <ele>28.8</ele>
        <time>2011-04-01T15:21:08Z</time>
      </trkpt>
      <trkpt lat="59.3271276787" lon="18.0434128729">
        <ele>28.8</ele>
        <time>2011-04-01T15:21:14Z</time>
      </trkpt>
      <trkpt lat="59.3271364797" lon="18.043436426">
        <ele>28.8</ele>
        <time>2011-04-01T15:21:27Z</time>
      </trkpt>
      <trkpt lat="59.3272236515" lon="18.0432325782">
        <ele>28.8</ele>
        <time>2011-04-01T15:21:32Z</time>
      </trkpt>
      <trkpt lat="59.3272334583" lon="18.0431776767">
        <ele>28.8</ele>
        <time>2011-04-01T15:21:33Z</time>
      </trkpt>
      <trkpt lat="59.3273088116" lon="18.0429368648">
        <ele>28.8</ele>
        <time>2011-04-01T15:21:38Z</time>
      </trkpt>
      <trkpt lat="59.3273051236" lon="18.0428952905">
        <ele>28.8</ele>
        <time>2011-04-01T15:21:43Z</time>
      </trkpt>
      <trkpt lat="59.3272791397" lon="18.0429258845">
        <ele>28.8</ele>
        <time>2011-04-01T15:21:46Z</time>
      </trkpt>
      <trkpt lat="59.327243349" lon="18.0431624217">
        <ele>28.8</ele>
        <time>2011-04-01T15:22:11Z</time>
      </trkpt>
      <trkpt lat="59.3272219751" lon="18.043225705">
        <ele>28.8</ele>
        <time>2011-04-01T15:22:25Z</time>
      </trkpt>
      <trkpt lat="59.3272218913" lon="18.0432527786">
        <ele>28.8</ele>
        <time>2011-04-01T15:22:36Z</time>
      </trkpt>
      <trkpt lat="59.3272080612" lon="18.0432064267">
        <ele>28.8</ele>
        <time>2011-04-01T15:22:49Z</time>
      </trkpt>
      <trkpt lat="59.3272425946" lon="18.0431272177">
        <ele>28.8</ele>
        <time>2011-04-01T15:22:58Z</time>
      </trkpt>
      <trkpt lat="59.3272680756" lon="18.043075669">
        <ele>28.8</ele>
        <time>2011-04-01T15:23:06Z</time>
      </trkpt>
      <trkpt lat="59.3272506412" lon="18.0430829613">
        <ele>28.8</ele>
        <time>2011-04-01T15:23:11Z</time>
      </trkpt>
      <trkpt lat="59.3271760423" lon="18.0430874037">
        <ele>33.2</ele>
        <time>2011-04-01T15:23:53Z</time>
      </trkpt>
      <trkpt lat="59.3271705941" lon="18.0430917623">
        <ele>34.2</ele>
        <time>2011-04-01T15:24:01Z</time>
      </trkpt>
      <trkpt lat="59.3271051314" lon="18.0431828735">
        <ele>29</ele>
        <time>2011-04-01T15:25:50Z</time>
      </trkpt>
      <trkpt lat="59.3271324564" lon="18.0431906687">
        <ele>28.8</ele>
        <time>2011-04-01T15:25:58Z</time>
      </trkpt>
      <trkpt lat="59.3271721866" lon="18.0430809496">
        <ele>45.8</ele>
        <time>2011-04-01T15:27:37Z</time>
      </trkpt>
      <trkpt lat="59.3271519863" lon="18.0431091128">
        <ele>46</ele>
        <time>2011-04-01T15:27:47Z</time>
      </trkpt>
      <trkpt lat="59.3271073107" lon="18.0431625893">
        <ele>46</ele>
        <time>2011-04-01T15:27:58Z</time>
      </trkpt>
      <trkpt lat="59.3271069755" lon="18.0431650201">
        <ele>46</ele>
        <time>2011-04-01T15:28:02Z</time>
      </trkpt>
      <trkpt lat="59.3271091548" lon="18.0431697139">
        <ele>45.8</ele>
        <time>2011-04-01T15:28:09Z</time>
      </trkpt>
      <trkpt lat="59.327079399" lon="18.043125709">
        <ele>39.6</ele>
        <time>2011-04-01T15:28:44Z</time>
      </trkpt>
      <trkpt lat="59.3270587795" lon="18.043130319">
        <ele>39.4</ele>
        <time>2011-04-01T15:28:46Z</time>
      </trkpt>
      <trkpt lat="59.3270120085" lon="18.0430768425">
        <ele>37.4</ele>
        <time>2011-04-01T15:28:53Z</time>
      </trkpt>
      <trkpt lat="59.3269646508" lon="18.0429736613">
        <ele>29.4</ele>
        <time>2011-04-01T15:29:14Z</time>
      </trkpt>
      <trkpt lat="59.326944199" lon="18.0429725717">
        <ele>25.8</ele>
        <time>2011-04-01T15:29:21Z</time>
      </trkpt>
      <trkpt lat="59.3269308717" lon="18.042958993">
        <ele>23.6</ele>
        <time>2011-04-01T15:29:26Z</time>
      </trkpt>
      <trkpt lat="59.3270016988" lon="18.0428286544">
        <ele>18.6</ele>
        <time>2011-04-01T15:29:37Z</time>
      </trkpt>
      <trkpt lat="59.3269789838" lon="18.0428105495">
        <ele>17</ele>
        <time>2011-04-01T15:29:42Z</time>
      </trkpt>
      <trkpt lat="59.3269290277" lon="18.0427952106">
        <ele>8.4</ele>
        <time>2011-04-01T15:30:06Z</time>
      </trkpt>
      <trkpt lat="59.3269172092" lon="18.0428009942">
        <ele>8</ele>
        <time>2011-04-01T15:30:09Z</time>
      </trkpt>
      <trkpt lat="59.3269592864" lon="18.0428011618">
        <ele>6.6</ele>
        <time>2011-04-01T15:30:15Z</time>
      </trkpt>
      <trkpt lat="59.3269872819" lon="18.0428528781">
        <ele>5.8</ele>
        <time>2011-04-01T15:30:21Z</time>
      </trkpt>
      <trkpt lat="59.3269586158" lon="18.0429065223">
        <ele>5.4</ele>
        <time>2011-04-01T15:30:29Z</time>
      </trkpt>
      <trkpt lat="59.3270125114" lon="18.0430402136">
        <ele>5.2</ele>
        <time>2011-04-01T15:30:33Z</time>
      </trkpt>
      <trkpt lat="59.3270659041" lon="18.0432472465">
        <ele>5.2</ele>
        <time>2011-04-01T15:30:38Z</time>
      </trkpt>
      <trkpt lat="59.3271581889" lon="18.0435103544">
        <ele>5.8</ele>
        <time>2011-04-01T15:30:44Z</time>
      </trkpt>
      <trkpt lat="59.3272264175" lon="18.0436635755">
        <ele>6.4</ele>
        <time>2011-04-01T15:30:50Z</time>
      </trkpt>
      <trkpt lat="59.3272042055" lon="18.043560059">
        <ele>6.4</ele>
        <time>2011-04-01T15:30:53Z</time>
      </trkpt>
      <trkpt lat="59.327158105" lon="18.0433692032">
        <ele>6.8</ele>
        <time>2011-04-01T15:31:01Z</time>
      </trkpt>
      <trkpt lat="59.3272009366" lon="18.0433640064">
        <ele>8.4</ele>
        <time>2011-04-01T15:31:39Z</time>
      </trkpt>
      <trkpt lat="59.3271975838" lon="18.0433563789">
        <ele>8.8</ele>
        <time>2011-04-01T15:31:44Z</time>
      </trkpt>
      <trkpt lat="59.3271680795" lon="18.0432679498">
        <ele>8.8</ele>
        <time>2011-04-01T15:31:50Z</time>
      </trkpt>
      <trkpt lat="59.3271249127" lon="18.0431360187">
        <ele>9</ele>
        <time>2011-04-01T15:31:57Z</time>
      </trkpt>
      <trkpt lat="59.3270877809" lon="18.0430855597">
        <ele>9</ele>
        <time>2011-04-01T15:32:07Z</time>
      </trkpt>
      <trkpt lat="59.3270819136" lon="18.0431109568">
        <ele>9</ele>
        <time>2011-04-01T15:32:15Z</time>
      </trkpt>
      <trkpt lat="59.3270225697" lon="18.0430627609">
        <ele>9</ele>
        <time>2011-04-01T15:32:23Z</time>
      </trkpt>
      <trkpt lat="59.3270139364" lon="18.0430641858">
        <ele>8.2</ele>
        <time>2011-04-01T15:32:38Z</time>
      </trkpt>
      <trkpt lat="59.3270352264" lon="18.0429917662">
        <ele>7.4</ele>
        <time>2011-04-01T15:32:48Z</time>
      </trkpt>
      <trkpt lat="59.3270573546" lon="18.0429713982">
        <ele>6.2</ele>
        <time>2011-04-01T15:32:54Z</time>
      </trkpt>
      <trkpt lat="59.3270436083" lon="18.0429746671">
        <ele>6</ele>
        <time>2011-04-01T15:32:56Z</time>
      </trkpt>
      <trkpt lat="59.3270005253" lon="18.0429716496">
        <ele>5.4</ele>
        <time>2011-04-01T15:33:03Z</time>
      </trkpt>
      <trkpt lat="59.3269305365" lon="18.043033089">
        <ele>5</ele>
        <time>2011-04-01T15:33:22Z</time>
      </trkpt>
      <trkpt lat="59.3269684226" lon="18.042989084">
        <ele>5</ele>
        <time>2011-04-01T15:33:25Z</time>
      </trkpt>
      <trkpt lat="59.3269995195" lon="18.0429744995">
        <ele>5</ele>
        <time>2011-04-01T15:33:31Z</time>
      </trkpt>
      <trkpt lat="59.3270944026" lon="18.0430405489">
        <ele>4.8</ele>
        <time>2011-04-01T15:33:50Z</time>
      </trkpt>
      <trkpt lat="59.3270815783" lon="18.0429874914">
        <ele>4.8</ele>
        <time>2011-04-01T15:33:58Z</time>
      </trkpt>
      <trkpt lat="59.3270904631" lon="18.042954802">
        <ele>6.2</ele>
        <time>2011-04-01T15:34:09Z</time>
      </trkpt>
      <trkpt lat="59.3271092386" lon="18.042916832">
        <ele>8.2</ele>
        <time>2011-04-01T15:34:51Z</time>
      </trkpt>
      <trkpt lat="59.327103958" lon="18.042883975">
        <ele>8.4</ele>
        <time>2011-04-01T15:34:53Z</time>
      </trkpt>
      <trkpt lat="59.3270994317" lon="18.042951114">
        <ele>8.8</ele>
        <time>2011-04-01T15:35:13Z</time>
      </trkpt>
      <trkpt lat="59.3270464581" lon="18.0430434825">
        <ele>8.8</ele>
        <time>2011-04-01T15:35:29Z</time>
      </trkpt>
      <trkpt lat="59.3270187979" lon="18.0429998128">
        <ele>9</ele>
        <time>2011-04-01T15:35:44Z</time>
      </trkpt>
      <trkpt lat="59.3272014395" lon="18.0431374436">
        <ele>14.2</ele>
        <time>2011-04-01T15:36:39Z</time>
      </trkpt>
      <trkpt lat="59.3272373978" lon="18.0431483401">
        <ele>16</ele>
        <time>2011-04-01T15:36:45Z</time>
      </trkpt>
      <trkpt lat="59.3272322849" lon="18.0431518605">
        <ele>17.8</ele>
        <time>2011-04-01T15:36:52Z</time>
      </trkpt>
      <trkpt lat="59.3272137609" lon="18.0431464123">
        <ele>19.8</ele>
        <time>2011-04-01T15:36:59Z</time>
      </trkpt>
      <trkpt lat="59.3271186263" lon="18.043102072">
        <ele>22.8</ele>
        <time>2011-04-01T15:37:16Z</time>
      </trkpt>
      <trkpt lat="59.3270726097" lon="18.0430685444">
        <ele>23.2</ele>
        <time>2011-04-01T15:37:19Z</time>
      </trkpt>
      <trkpt lat="59.3270977554" lon="18.0431268824">
        <ele>23.4</ele>
        <time>2011-04-01T15:37:26Z</time>
      </trkpt>
      <trkpt lat="59.3271456998" lon="18.0431785149">
        <ele>23.4</ele>
        <time>2011-04-01T15:37:32Z</time>
      </trkpt>
      <trkpt lat="59.3271775511" lon="18.0431863101">
        <ele>23.6</ele>
        <time>2011-04-01T15:37:39Z</time>
      </trkpt>
      <trkpt lat="59.3271727734" lon="18.0431795208">
        <ele>23.6</ele>
        <time>2011-04-01T15:37:43Z</time>
      </trkpt>
      <trkpt lat="59.3271703426" lon="18.0431916745">
        <ele>23.6</ele>
        <time>2011-04-01T15:37:49Z</time>
      </trkpt>
      <trkpt lat="59.3271245774" lon="18.0432642618">
        <ele>23.6</ele>
        <time>2011-04-01T15:38:04Z</time>
      </trkpt>
      <trkpt lat="59.3271196321" lon="18.0432250345">
        <ele>25.6</ele>
        <time>2011-04-01T15:39:18Z</time>
      </trkpt>
      <trkpt lat="59.3271451969" lon="18.04317709">
        <ele>25.6</ele>
        <time>2011-04-01T15:39:45Z</time>
      </trkpt>
      <trkpt lat="59.3271617093" lon="18.0431738211">
        <ele>25.6</ele>
        <time>2011-04-01T15:39:53Z</time>
      </trkpt>
      <trkpt lat="59.3270690054" lon="18.0432500125">
        <ele>27.6</ele>
        <time>2011-04-01T15:40:49Z</time>
      </trkpt>
      <trkpt lat="59.3269902156" lon="18.0433459853">
        <ele>27.6</ele>
        <time>2011-04-01T15:41:08Z</time>
      </trkpt>
      <trkpt lat="59.3269786486" lon="18.0433209234">
        <ele>27.6</ele>
        <time>2011-04-01T15:41:18Z</time>
      </trkpt>
      <trkpt lat="59.3269917243" lon="18.0431512738">
        <ele>35.8</ele>
        <time>2011-04-01T15:43:37Z</time>
      </trkpt>
      <trkpt lat="59.3269446181" lon="18.0431464123">
        <ele>35.8</ele>
        <time>2011-04-01T15:43:43Z</time>
      </trkpt>
      <trkpt lat="59.326933051" lon="18.0431751622">
        <ele>35.8</ele>
        <time>2011-04-01T15:43:53Z</time>
      </trkpt>
      <trkpt lat="59.3268761379" lon="18.0432151438">
        <ele>35.8</ele>
        <time>2011-04-01T15:44:12Z</time>
      </trkpt>
      <trkpt lat="59.3268619725" lon="18.0432386132">
        <ele>36.2</ele>
        <time>2011-04-01T15:44:14Z</time>
      </trkpt>
      <trkpt lat="59.3268058976" lon="18.0434061673">
        <ele>37</ele>
        <time>2011-04-01T15:44:21Z</time>
      </trkpt>
      <trkpt lat="59.3267896367" lon="18.0434735578">
        <ele>37.4</ele>
        <time>2011-04-01T15:44:30Z</time>
      </trkpt>
      <trkpt lat="59.3268126031" lon="18.0434870527">
        <ele>37.8</ele>
        <time>2011-04-01T15:44:44Z</time>
      </trkpt>
      <trkpt lat="59.3268031316" lon="18.0435255256">
        <ele>37.8</ele>
        <time>2011-04-01T15:44:51Z</time>
      </trkpt>
      <trkpt lat="59.3268220747" lon="18.0433888168">
        <ele>38.6</ele>
        <time>2011-04-01T15:45:06Z</time>
      </trkpt>
      <trkpt lat="59.3268896328" lon="18.0432837916">
        <ele>39</ele>
        <time>2011-04-01T15:45:11Z</time>
      </trkpt>
      <trkpt lat="59.3269116772" lon="18.0432367691">
        <ele>39.2</ele>
        <time>2011-04-01T15:45:13Z</time>
      </trkpt>
      <trkpt lat="59.3269347274" lon="18.0431828735">
        <ele>39.4</ele>
        <time>2011-04-01T15:45:17Z</time>
      </trkpt>
      <trkpt lat="59.3269659081" lon="18.043124787">
        <ele>39.6</ele>
        <time>2011-04-01T15:45:24Z</time>
      </trkpt>
      <trkpt lat="59.3269419358" lon="18.043065946">
        <ele>41</ele>
        <time>2011-04-01T15:45:39Z</time>
      </trkpt>
      <trkpt lat="59.3270270959" lon="18.0429482641">
        <ele>41.4</ele>
        <time>2011-04-01T15:45:44Z</time>
      </trkpt>
      <trkpt lat="59.3270612941" lon="18.0428321748">
        <ele>41.4</ele>
        <time>2011-04-01T15:45:48Z</time>
      </trkpt>
      <trkpt lat="59.3270895411" lon="18.0427937019">
        <ele>41.6</ele>
        <time>2011-04-01T15:45:52Z</time>
      </trkpt>
      <trkpt lat="59.327139581" lon="18.0427691429">
        <ele>41.8</ele>
        <time>2011-04-01T15:45:59Z</time>
      </trkpt>
      <trkpt lat="59.3270941511" lon="18.0428346056">
        <ele>41.8</ele>
        <time>2011-04-01T15:46:04Z</time>
      </trkpt>
      <trkpt lat="59.3270709333" lon="18.0428740005">
        <ele>41.8</ele>
        <time>2011-04-01T15:46:06Z</time>
      </trkpt>
      <trkpt lat="59.3269952447" lon="18.0430368608">
        <ele>41.8</ele>
        <time>2011-04-01T15:46:12Z</time>
      </trkpt>
      <trkpt lat="59.3269768045" lon="18.0431050057">
        <ele>41.8</ele>
        <time>2011-04-01T15:46:23Z</time>
      </trkpt>
      <trkpt lat="59.3269916405" lon="18.0429485994">
        <ele>43.8</ele>
        <time>2011-04-01T15:48:49Z</time>
      </trkpt>
      <trkpt lat="59.3270449494" lon="18.0430695502">
        <ele>43.8</ele>
        <time>2011-04-01T15:48:59Z</time>
      </trkpt>
      <trkpt lat="59.3270510682" lon="18.0430834642">
        <ele>43.8</ele>
        <time>2011-04-01T15:49:04Z</time>
      </trkpt>
      <trkpt lat="59.3269679197" lon="18.0428638584">
        <ele>45.2</ele>
        <time>2011-04-01T15:49:37Z</time>
      </trkpt>
      <trkpt lat="59.3270011959" lon="18.0430101226">
        <ele>50</ele>
        <time>2011-04-01T15:50:47Z</time>
      </trkpt>
      <trkpt lat="59.3269947418" lon="18.0430618389">
        <ele>50</ele>
        <time>2011-04-01T15:50:53Z</time>
      </trkpt>
      <trkpt lat="59.3269789" lon="18.0431162374">
        <ele>50</ele>
        <time>2011-04-01T15:51:00Z</time>
      </trkpt>
      <trkpt lat="59.3270291076" lon="18.0433615756">
        <ele>51</ele>
        <time>2011-04-01T15:52:12Z</time>
      </trkpt>
      <trkpt lat="59.3269958315" lon="18.0432453187">
        <ele>51</ele>
        <time>2011-04-01T15:52:26Z</time>
      </trkpt>
      <trkpt lat="59.3269911376" lon="18.0431645172">
        <ele>51</ele>
        <time>2011-04-01T15:52:33Z</time>
      </trkpt>
      <trkpt lat="59.3269859408" lon="18.0431853881">
        <ele>51</ele>
        <time>2011-04-01T15:52:34Z</time>
      </trkpt>
      <trkpt lat="59.326950653" lon="18.0432174908">
        <ele>51</ele>
        <time>2011-04-01T15:52:37Z</time>
      </trkpt>
      <trkpt lat="59.3269579453" lon="18.0430433987">
        <ele>51.6</ele>
        <time>2011-04-01T15:53:37Z</time>
      </trkpt>
      <trkpt lat="59.3269740385" lon="18.0430185883">
        <ele>51.6</ele>
        <time>2011-04-01T15:53:44Z</time>
      </trkpt>
      <trkpt lat="59.3269801573" lon="18.0429634354">
        <ele>51.6</ele>
        <time>2011-04-01T15:53:49Z</time>
      </trkpt>
      <trkpt lat="59.3269565204" lon="18.0428949553">
        <ele>51.6</ele>
        <time>2011-04-01T15:54:15Z</time>
      </trkpt>
      <trkpt lat="59.3269476355" lon="18.0429547182">
        <ele>51.6</ele>
        <time>2011-04-01T15:54:20Z</time>
      </trkpt>
      <trkpt lat="59.3269989328" lon="18.042948348">
        <ele>53.6</ele>
        <time>2011-04-01T15:55:40Z</time>
      </trkpt>
      <trkpt lat="59.3269667463" lon="18.0430997251">
        <ele>53.6</ele>
        <time>2011-04-01T15:56:06Z</time>
      </trkpt>
      <trkpt lat="59.3270153613" lon="18.0430369446">
        <ele>53.6</ele>
        <time>2011-04-01T15:56:48Z</time>
      </trkpt>
      <trkpt lat="59.3270146069" lon="18.0430660298">
        <ele>53.6</ele>
        <time>2011-04-01T15:57:05Z</time>
      </trkpt>
      <trkpt lat="59.3270196361" lon="18.0430636829">
        <ele>53.6</ele>
        <time>2011-04-01T15:57:11Z</time>
      </trkpt>
      <trkpt lat="59.3269860246" lon="18.0430523673">
        <ele>53.6</ele>
        <time>2011-04-01T15:57:16Z</time>
      </trkpt>
      <trkpt lat="59.326947887" lon="18.0430096196">
        <ele>53.6</ele>
        <time>2011-04-01T15:57:22Z</time>
      </trkpt>
      <trkpt lat="59.3269238309" lon="18.0429876591">
        <ele>53.6</ele>
        <time>2011-04-01T15:57:30Z</time>
      </trkpt>
      <trkpt lat="59.3269286086" lon="18.0430480926">
        <ele>53.6</ele>
        <time>2011-04-01T15:57:34Z</time>
      </trkpt>
      <trkpt lat="59.326979822" lon="18.0430143973">
        <ele>53.6</ele>
        <time>2011-04-01T15:57:48Z</time>
      </trkpt>
      <trkpt lat="59.3270167862" lon="18.0430501042">
        <ele>53.6</ele>
        <time>2011-04-01T15:57:55Z</time>
      </trkpt>
      <trkpt lat="59.3270643116" lon="18.0430329213">
        <ele>53.6</ele>
        <time>2011-04-01T15:58:06Z</time>
      </trkpt>
      <trkpt lat="59.3270652336" lon="18.0430338433">
        <ele>53.6</ele>
        <time>2011-04-01T15:58:07Z</time>
      </trkpt>
      <trkpt lat="59.3270273474" lon="18.0430949474">
        <ele>53.6</ele>
        <time>2011-04-01T15:58:12Z</time>
      </trkpt>
      <trkpt lat="59.3270338015" lon="18.0430806143">
        <ele>53.6</ele>
        <time>2011-04-01T15:58:22Z</time>
      </trkpt>
      <trkpt lat="59.3270674129" lon="18.0430396269">
        <ele>53.6</ele>
        <time>2011-04-01T15:58:25Z</time>
      </trkpt>
      <trkpt lat="59.3271058858" lon="18.0429891678">
        <ele>53.6</ele>
        <time>2011-04-01T15:58:30Z</time>
      </trkpt>
      <trkpt lat="59.3271008567" lon="18.0429843901">
        <ele>53.6</ele>
        <time>2011-04-01T15:58:34Z</time>
      </trkpt>
      <trkpt lat="59.3270487213" lon="18.0430251262">
        <ele>53.6</ele>
        <time>2011-04-01T15:58:41Z</time>
      </trkpt>
      <trkpt lat="59.3270284371" lon="18.0430721486">
        <ele>53.6</ele>
        <time>2011-04-01T15:58:45Z</time>
      </trkpt>
      <trkpt lat="59.3270175406" lon="18.0431092804">
        <ele>53.6</ele>
        <time>2011-04-01T15:58:53Z</time>
      </trkpt>
      <trkpt lat="59.3270058897" lon="18.0431265472">
        <ele>53.6</ele>
        <time>2011-04-01T15:59:52Z</time>
      </trkpt>
      <trkpt lat="59.3270334662" lon="18.043062258">
        <ele>53.6</ele>
        <time>2011-04-01T15:59:56Z</time>
      </trkpt>
      <trkpt lat="59.3270519902" lon="18.043053457">
        <ele>53.6</ele>
        <time>2011-04-01T15:59:57Z</time>
      </trkpt>
      <trkpt lat="59.3270596177" lon="18.0430467515">
        <ele>53.6</ele>
        <time>2011-04-01T15:59:58Z</time>
      </trkpt>
      <trkpt lat="59.3270833385" lon="18.0430185883">
        <ele>53.6</ele>
        <time>2011-04-01T16:00:03Z</time>
      </trkpt>
      <trkpt lat="59.327083087" lon="18.0429966277">
        <ele>53.6</ele>
        <time>2011-04-01T16:00:04Z</time>
      </trkpt>
      <trkpt lat="59.3270915528" lon="18.0429947837">
        <ele>53.6</ele>
        <time>2011-04-01T16:00:07Z</time>
      </trkpt>
      <trkpt lat="59.3270972525" lon="18.0430370285">
        <ele>53.6</ele>
        <time>2011-04-01T16:00:12Z</time>
      </trkpt>
      <trkpt lat="59.32710949" lon="18.0430336757">
        <ele>53.6</ele>
        <time>2011-04-01T16:00:14Z</time>
      </trkpt>
      <trkpt lat="59.3271648106" lon="18.0428191829">
        <ele>53.6</ele>
        <time>2011-04-01T16:00:20Z</time>
      </trkpt>
      <trkpt lat="59.3271661517" lon="18.0428035925">
        <ele>53.6</ele>
        <time>2011-04-01T16:00:21Z</time>
      </trkpt>
      <trkpt lat="59.3271695044" lon="18.0427986472">
        <ele>53.6</ele>
        <time>2011-04-01T16:00:24Z</time>
      </trkpt>
    </trkseg>
  </trk>
</gpx>